<?xml version="1.0" encoding="UTF-8" standalone="no" ?>
<gpx xmlns="http://www.topografix.com/GPX/1/1" xmlns:xsi="http://www.w3.org/2001/XMLSchema-instance" xsi:schemaLocation="http://www.topografix.com/GPX/1/1 http://www.topografix.com/GPX/1/1/gpx.xsd" version="1.1" creator="VisuGPX - https://www.visugpx.com">
  <metadata>
    <name>Traversée des Picos de Europa</name>
    <desc><![CDATA[Traversée des Picos de Europa, prévue en septembre 2021 par Belledonne Sports Nature.]]></desc>
  </metadata>
  <trk>
    <name><![CDATA[Variante Pena Vieja]]></name>
    <extensions>
      <line xmlns="http://www.topografix.com/GPX/gpx_style/0/2">
        <color>007bff</color>
        <opacity>0.75</opacity>
        <width>3</width>
        <dasharray>6</dasharray>
      </line>
    </extensions>
    <trkseg>
      <trkpt lat="43.16817" lon="-4.78989">
        <ele>1680.6</ele>
      </trkpt>
      <trkpt lat="43.1682" lon="-4.79187">
        <ele>1699.7</ele>
      </trkpt>
      <trkpt lat="43.16796" lon="-4.79336">
        <ele>1713.3</ele>
      </trkpt>
      <trkpt lat="43.16784" lon="-4.79413">
        <ele>1718.4</ele>
      </trkpt>
      <trkpt lat="43.16792" lon="-4.79471">
        <ele>1720.5</ele>
      </trkpt>
      <trkpt lat="43.1683" lon="-4.79506">
        <ele>1717.1</ele>
      </trkpt>
      <trkpt lat="43.16833" lon="-4.796">
        <ele>1729.2</ele>
      </trkpt>
      <trkpt lat="43.16845" lon="-4.79678">
        <ele>1747.1</ele>
      </trkpt>
      <trkpt lat="43.1691" lon="-4.79675">
        <ele>1730.3</ele>
      </trkpt>
      <trkpt lat="43.16942" lon="-4.7972">
        <ele>1731</ele>
      </trkpt>
      <trkpt lat="43.16949" lon="-4.7978">
        <ele>1739.2</ele>
      </trkpt>
      <trkpt lat="43.16922" lon="-4.7983">
        <ele>1749.4</ele>
        <time>2015-09-05T08:23:54Z</time>
      </trkpt>
      <trkpt lat="43.17046" lon="-4.79871">
        <ele>1756.7</ele>
        <time>2015-09-05T08:24:07Z</time>
      </trkpt>
      <trkpt lat="43.17058" lon="-4.79876">
        <ele>1757.5</ele>
        <time>2015-09-05T08:24:20Z</time>
      </trkpt>
      <trkpt lat="43.17066" lon="-4.79875">
        <ele>1756.8</ele>
        <time>2015-09-05T08:24:29Z</time>
      </trkpt>
      <trkpt lat="43.17091" lon="-4.79875">
        <ele>1743</ele>
        <time>2015-09-05T08:24:57Z</time>
      </trkpt>
      <trkpt lat="43.17104" lon="-4.79871">
        <ele>1743</ele>
        <time>2015-09-05T08:25:10Z</time>
      </trkpt>
      <trkpt lat="43.17119" lon="-4.79871">
        <ele>1743</ele>
        <time>2015-09-05T08:25:29Z</time>
      </trkpt>
      <trkpt lat="43.17128" lon="-4.79868">
        <ele>1743</ele>
        <time>2015-09-05T08:25:40Z</time>
      </trkpt>
      <trkpt lat="43.17133" lon="-4.79865">
        <ele>1743</ele>
        <time>2015-09-05T08:25:49Z</time>
      </trkpt>
      <trkpt lat="43.1714" lon="-4.79862">
        <ele>1743</ele>
        <time>2015-09-05T08:25:57Z</time>
      </trkpt>
      <trkpt lat="43.17158" lon="-4.79853">
        <ele>1743</ele>
        <time>2015-09-05T08:26:17Z</time>
      </trkpt>
      <trkpt lat="43.1716" lon="-4.79854">
        <ele>1743</ele>
        <time>2015-09-05T08:26:20Z</time>
      </trkpt>
      <trkpt lat="43.17176" lon="-4.79836">
        <ele>1751.759</ele>
        <time>2015-09-05T08:26:38Z</time>
      </trkpt>
      <trkpt lat="43.17187" lon="-4.79819">
        <ele>1746</ele>
        <time>2015-09-05T08:26:54Z</time>
      </trkpt>
      <trkpt lat="43.1719" lon="-4.79815">
        <ele>1746</ele>
        <time>2015-09-05T08:26:58Z</time>
      </trkpt>
      <trkpt lat="43.17206" lon="-4.79809">
        <ele>1746</ele>
        <time>2015-09-05T08:27:17Z</time>
      </trkpt>
      <trkpt lat="43.17208" lon="-4.79805">
        <ele>1746</ele>
        <time>2015-09-05T08:27:21Z</time>
      </trkpt>
      <trkpt lat="43.17213" lon="-4.79799">
        <ele>1746</ele>
        <time>2015-09-05T08:27:30Z</time>
      </trkpt>
      <trkpt lat="43.17217" lon="-4.79793">
        <ele>1746</ele>
        <time>2015-09-05T08:27:37Z</time>
      </trkpt>
      <trkpt lat="43.17223" lon="-4.79784">
        <ele>1746</ele>
        <time>2015-09-05T08:27:49Z</time>
      </trkpt>
      <trkpt lat="43.17231" lon="-4.79778">
        <ele>1746</ele>
        <time>2015-09-05T08:27:57Z</time>
      </trkpt>
      <trkpt lat="43.17237" lon="-4.79777">
        <ele>1746</ele>
        <time>2015-09-05T08:28:03Z</time>
      </trkpt>
      <trkpt lat="43.17262" lon="-4.79782">
        <ele>1743</ele>
        <time>2015-09-05T08:28:26Z</time>
      </trkpt>
      <trkpt lat="43.17272" lon="-4.79781">
        <ele>1743</ele>
        <time>2015-09-05T08:28:39Z</time>
      </trkpt>
      <trkpt lat="43.17279" lon="-4.79788">
        <ele>1743</ele>
        <time>2015-09-05T08:34:55Z</time>
      </trkpt>
      <trkpt lat="43.17277" lon="-4.79794">
        <ele>1743</ele>
        <time>2015-09-05T08:35:06Z</time>
      </trkpt>
      <trkpt lat="43.17271" lon="-4.79815">
        <ele>1743</ele>
        <time>2015-09-05T08:35:28Z</time>
      </trkpt>
      <trkpt lat="43.17275" lon="-4.7983">
        <ele>1743</ele>
        <time>2015-09-05T08:35:41Z</time>
      </trkpt>
      <trkpt lat="43.17271" lon="-4.79844">
        <ele>1743</ele>
        <time>2015-09-05T08:36:05Z</time>
      </trkpt>
      <trkpt lat="43.17274" lon="-4.79847">
        <ele>1743</ele>
        <time>2015-09-05T08:36:09Z</time>
      </trkpt>
      <trkpt lat="43.17284" lon="-4.79861">
        <ele>1743</ele>
        <time>2015-09-05T08:36:27Z</time>
      </trkpt>
      <trkpt lat="43.17295" lon="-4.79875">
        <ele>1743</ele>
        <time>2015-09-05T08:36:44Z</time>
      </trkpt>
      <trkpt lat="43.17298" lon="-4.79879">
        <ele>1743</ele>
        <time>2015-09-05T08:36:51Z</time>
      </trkpt>
      <trkpt lat="43.17304" lon="-4.79882">
        <ele>1743</ele>
        <time>2015-09-05T08:36:57Z</time>
      </trkpt>
      <trkpt lat="43.17308" lon="-4.79888">
        <ele>1743</ele>
        <time>2015-09-05T08:37:10Z</time>
      </trkpt>
      <trkpt lat="43.17313" lon="-4.79902">
        <ele>1743</ele>
        <time>2015-09-05T08:37:38Z</time>
      </trkpt>
      <trkpt lat="43.17314" lon="-4.79904">
        <ele>1743</ele>
        <time>2015-09-05T08:37:41Z</time>
      </trkpt>
      <trkpt lat="43.17321" lon="-4.79919">
        <ele>1746.408</ele>
        <time>2015-09-05T08:38:05Z</time>
      </trkpt>
      <trkpt lat="43.17325" lon="-4.79925">
        <ele>1746.427</ele>
        <time>2015-09-05T08:38:13Z</time>
      </trkpt>
      <trkpt lat="43.17329" lon="-4.79936">
        <ele>1745.933</ele>
        <time>2015-09-05T08:38:35Z</time>
      </trkpt>
      <trkpt lat="43.17331" lon="-4.7994">
        <ele>1745.962</ele>
        <time>2015-09-05T08:38:47Z</time>
      </trkpt>
      <trkpt lat="43.17336" lon="-4.79946">
        <ele>1717</ele>
        <time>2015-09-05T08:39:12Z</time>
      </trkpt>
      <trkpt lat="43.17344" lon="-4.79953">
        <ele>1717</ele>
        <time>2015-09-05T08:39:30Z</time>
      </trkpt>
      <trkpt lat="43.17351" lon="-4.79962">
        <ele>1717</ele>
        <time>2015-09-05T08:39:42Z</time>
      </trkpt>
      <trkpt lat="43.17361" lon="-4.79978">
        <ele>1717</ele>
        <time>2015-09-05T08:40:06Z</time>
      </trkpt>
      <trkpt lat="43.17365" lon="-4.79982">
        <ele>1717</ele>
        <time>2015-09-05T08:40:20Z</time>
      </trkpt>
      <trkpt lat="43.17375" lon="-4.79995">
        <ele>1717</ele>
        <time>2015-09-05T08:40:44Z</time>
      </trkpt>
      <trkpt lat="43.17378" lon="-4.79998">
        <ele>1717</ele>
        <time>2015-09-05T08:40:57Z</time>
      </trkpt>
      <trkpt lat="43.17386" lon="-4.80007">
        <ele>1740.669</ele>
        <time>2015-09-05T08:41:24Z</time>
      </trkpt>
      <trkpt lat="43.17387" lon="-4.80006">
        <ele>1740.11</ele>
        <time>2015-09-05T08:41:28Z</time>
      </trkpt>
      <trkpt lat="43.1739" lon="-4.79997">
        <ele>1717</ele>
        <time>2015-09-05T08:41:44Z</time>
      </trkpt>
      <trkpt lat="43.17397" lon="-4.79991">
        <ele>1717</ele>
        <time>2015-09-05T08:42:06Z</time>
      </trkpt>
      <trkpt lat="43.17398" lon="-4.79991">
        <ele>1717</ele>
        <time>2015-09-05T08:42:18Z</time>
      </trkpt>
      <trkpt lat="43.17406" lon="-4.79996">
        <ele>1717</ele>
        <time>2015-09-05T08:42:34Z</time>
      </trkpt>
      <trkpt lat="43.17411" lon="-4.8">
        <ele>1717</ele>
        <time>2015-09-05T08:42:40Z</time>
      </trkpt>
      <trkpt lat="43.17416" lon="-4.80005">
        <ele>1728.653</ele>
        <time>2015-09-05T08:42:46Z</time>
      </trkpt>
      <trkpt lat="43.17422" lon="-4.80011">
        <ele>1729.158</ele>
        <time>2015-09-05T08:42:53Z</time>
      </trkpt>
      <trkpt lat="43.17439" lon="-4.8002">
        <ele>1728.154</ele>
        <time>2015-09-05T08:43:11Z</time>
      </trkpt>
      <trkpt lat="43.17441" lon="-4.8002">
        <ele>1728.133</ele>
        <time>2015-09-05T08:43:13Z</time>
      </trkpt>
      <trkpt lat="43.17451" lon="-4.80022">
        <ele>1727.6</ele>
        <time>2015-09-05T08:43:21Z</time>
      </trkpt>
      <trkpt lat="43.17477" lon="-4.80031">
        <ele>1726.708</ele>
        <time>2015-09-05T08:43:42Z</time>
      </trkpt>
      <trkpt lat="43.17492" lon="-4.80034">
        <ele>1726.263</ele>
        <time>2015-09-05T08:43:55Z</time>
      </trkpt>
      <trkpt lat="43.17517" lon="-4.80048">
        <ele>1725.739</ele>
        <time>2015-09-05T08:44:20Z</time>
      </trkpt>
      <trkpt lat="43.17524" lon="-4.80051">
        <ele>1725.248</ele>
        <time>2015-09-05T08:44:26Z</time>
      </trkpt>
      <trkpt lat="43.17552" lon="-4.80074">
        <ele>1722.394</ele>
        <time>2015-09-05T08:44:58Z</time>
      </trkpt>
      <trkpt lat="43.17555" lon="-4.80074">
        <ele>1722.859</ele>
        <time>2015-09-05T08:45:01Z</time>
      </trkpt>
      <trkpt lat="43.17573" lon="-4.8008">
        <ele>1721.487</ele>
        <time>2015-09-05T08:45:21Z</time>
      </trkpt>
      <trkpt lat="43.17576" lon="-4.80078">
        <ele>1720.442</ele>
        <time>2015-09-05T08:45:35Z</time>
      </trkpt>
      <trkpt lat="43.17576" lon="-4.80076">
        <ele>1719.008</ele>
        <time>2015-09-05T08:46:04Z</time>
      </trkpt>
      <trkpt lat="43.17576" lon="-4.80072">
        <ele>1719.999</ele>
        <time>2015-09-05T08:46:16Z</time>
      </trkpt>
      <trkpt lat="43.17579" lon="-4.80068">
        <ele>1716.625</ele>
        <time>2015-09-05T08:46:33Z</time>
      </trkpt>
      <trkpt lat="43.17586" lon="-4.80073">
        <ele>1717.139</ele>
        <time>2015-09-05T08:46:57Z</time>
      </trkpt>
      <trkpt lat="43.17591" lon="-4.80076">
        <ele>1718.57</ele>
        <time>2015-09-05T08:47:07Z</time>
      </trkpt>
      <trkpt lat="43.17602" lon="-4.8008">
        <ele>1720.464</ele>
        <time>2015-09-05T08:47:27Z</time>
      </trkpt>
      <trkpt lat="43.17609" lon="-4.8008">
        <ele>1720.426</ele>
        <time>2015-09-05T08:47:36Z</time>
      </trkpt>
      <trkpt lat="43.17617" lon="-4.80083">
        <ele>1720.411</ele>
        <time>2015-09-05T08:47:50Z</time>
      </trkpt>
      <trkpt lat="43.17627" lon="-4.8008">
        <ele>1719.508</ele>
        <time>2015-09-05T08:48:04Z</time>
      </trkpt>
      <trkpt lat="43.17632" lon="-4.80073">
        <ele>1718.522</ele>
        <time>2015-09-05T08:48:14Z</time>
      </trkpt>
      <trkpt lat="43.17637" lon="-4.80073">
        <ele>1720.479</ele>
        <time>2015-09-05T08:48:25Z</time>
      </trkpt>
      <trkpt lat="43.17648" lon="-4.80076">
        <ele>1722.843</ele>
        <time>2015-09-05T08:48:52Z</time>
      </trkpt>
      <trkpt lat="43.17657" lon="-4.80069">
        <ele>1722.899</ele>
        <time>2015-09-05T08:49:18Z</time>
      </trkpt>
      <trkpt lat="43.17659" lon="-4.80065">
        <ele>1723.398</ele>
        <time>2015-09-05T08:49:28Z</time>
      </trkpt>
      <trkpt lat="43.17668" lon="-4.80067">
        <ele>1723.303</ele>
        <time>2015-09-05T08:49:52Z</time>
      </trkpt>
      <trkpt lat="43.17671" lon="-4.80063">
        <ele>1721.923</ele>
        <time>2015-09-05T08:50:05Z</time>
      </trkpt>
      <trkpt lat="43.17676" lon="-4.80059">
        <ele>1721.426</ele>
        <time>2015-09-05T08:50:33Z</time>
      </trkpt>
      <trkpt lat="43.17682" lon="-4.80056">
        <ele>1720.425</ele>
        <time>2015-09-05T08:50:44Z</time>
      </trkpt>
      <trkpt lat="43.17689" lon="-4.80054">
        <ele>1719.561</ele>
        <time>2015-09-05T08:50:58Z</time>
      </trkpt>
      <trkpt lat="43.17693" lon="-4.80053">
        <ele>1720.466</ele>
        <time>2015-09-05T08:51:10Z</time>
      </trkpt>
      <trkpt lat="43.17696" lon="-4.80054">
        <ele>1720.992</ele>
        <time>2015-09-05T08:51:32Z</time>
      </trkpt>
      <trkpt lat="43.17705" lon="-4.80045">
        <ele>1716.634</ele>
        <time>2015-09-05T08:52:00Z</time>
      </trkpt>
      <trkpt lat="43.1771" lon="-4.80044">
        <ele>1715.655</ele>
        <time>2015-09-05T08:52:11Z</time>
      </trkpt>
      <trkpt lat="43.17715" lon="-4.80043">
        <ele>1713.708</ele>
        <time>2015-09-05T08:52:28Z</time>
      </trkpt>
      <trkpt lat="43.1772" lon="-4.80044">
        <ele>1712.774</ele>
        <time>2015-09-05T08:52:40Z</time>
      </trkpt>
      <trkpt lat="43.1773" lon="-4.80042">
        <ele>1709.83</ele>
        <time>2015-09-05T08:52:55Z</time>
      </trkpt>
      <trkpt lat="43.17735" lon="-4.8004">
        <ele>1709.419</ele>
        <time>2015-09-05T08:53:00Z</time>
      </trkpt>
      <trkpt lat="43.17751" lon="-4.80036">
        <ele>1708.465</ele>
        <time>2015-09-05T08:53:17Z</time>
      </trkpt>
      <trkpt lat="43.17754" lon="-4.80035">
        <ele>1708.42</ele>
        <time>2015-09-05T08:53:20Z</time>
      </trkpt>
      <trkpt lat="43.17761" lon="-4.80031">
        <ele>1708.439</ele>
        <time>2015-09-05T08:53:27Z</time>
      </trkpt>
      <trkpt lat="43.17768" lon="-4.80025">
        <ele>1709.401</ele>
        <time>2015-09-05T08:53:35Z</time>
      </trkpt>
      <trkpt lat="43.17777" lon="-4.8002">
        <ele>1711.808</ele>
        <time>2015-09-05T08:53:47Z</time>
      </trkpt>
      <trkpt lat="43.17784" lon="-4.80013">
        <ele>1712.733</ele>
        <time>2015-09-05T08:53:57Z</time>
      </trkpt>
      <trkpt lat="43.17789" lon="-4.80013">
        <ele>1714.25</ele>
        <time>2015-09-05T08:54:03Z</time>
      </trkpt>
      <trkpt lat="43.17789" lon="-4.80008">
        <ele>1713.744</ele>
        <time>2015-09-05T08:54:35Z</time>
      </trkpt>
      <trkpt lat="43.17788" lon="-4.80011">
        <ele>1713.725</ele>
        <time>2015-09-05T08:54:52Z</time>
      </trkpt>
      <trkpt lat="43.17789" lon="-4.8001">
        <ele>1714.719</ele>
        <time>2015-09-05T08:55:25Z</time>
      </trkpt>
      <trkpt lat="43.17794" lon="-4.8001">
        <ele>1715.667</ele>
        <time>2015-09-05T08:55:38Z</time>
      </trkpt>
      <trkpt lat="43.17803" lon="-4.80009">
        <ele>1719.919</ele>
        <time>2015-09-05T08:56:00Z</time>
      </trkpt>
      <trkpt lat="43.17804" lon="-4.8001">
        <ele>1722.308</ele>
        <time>2015-09-05T08:56:13Z</time>
      </trkpt>
      <trkpt lat="43.17812" lon="-4.80016">
        <ele>1726.796</ele>
        <time>2015-09-05T08:56:36Z</time>
      </trkpt>
      <trkpt lat="43.17819" lon="-4.80019">
        <ele>1730.542</ele>
        <time>2015-09-05T08:56:58Z</time>
      </trkpt>
      <trkpt lat="43.17822" lon="-4.80021">
        <ele>1732.487</ele>
        <time>2015-09-05T08:57:08Z</time>
      </trkpt>
      <trkpt lat="43.17829" lon="-4.8002">
        <ele>1735.373</ele>
        <time>2015-09-05T08:57:25Z</time>
      </trkpt>
      <trkpt lat="43.17832" lon="-4.80017">
        <ele>1736.332</ele>
        <time>2015-09-05T08:57:37Z</time>
      </trkpt>
      <trkpt lat="43.1784" lon="-4.80011">
        <ele>1738.247</ele>
        <time>2015-09-05T08:58:02Z</time>
      </trkpt>
      <trkpt lat="43.17844" lon="-4.80011">
        <ele>1740.611</ele>
        <time>2015-09-05T08:58:16Z</time>
      </trkpt>
      <trkpt lat="43.17848" lon="-4.80015">
        <ele>1744.575</ele>
        <time>2015-09-05T08:58:39Z</time>
      </trkpt>
      <trkpt lat="43.17852" lon="-4.80018">
        <ele>1745.974</ele>
        <time>2015-09-05T08:58:49Z</time>
      </trkpt>
      <trkpt lat="43.1786" lon="-4.80022">
        <ele>1749.75</ele>
        <time>2015-09-05T08:59:13Z</time>
      </trkpt>
      <trkpt lat="43.17863" lon="-4.80023">
        <ele>1751.725</ele>
        <time>2015-09-05T08:59:24Z</time>
      </trkpt>
      <trkpt lat="43.17867" lon="-4.8002">
        <ele>1753.691</ele>
        <time>2015-09-05T08:59:51Z</time>
      </trkpt>
      <trkpt lat="43.17868" lon="-4.80027">
        <ele>1756.063</ele>
        <time>2015-09-05T09:00:18Z</time>
      </trkpt>
      <trkpt lat="43.1787" lon="-4.80029">
        <ele>1757.944</ele>
        <time>2015-09-05T09:00:28Z</time>
      </trkpt>
      <trkpt lat="43.17875" lon="-4.80034">
        <ele>1762.208</ele>
        <time>2015-09-05T09:00:48Z</time>
      </trkpt>
      <trkpt lat="43.17878" lon="-4.80034">
        <ele>1764.217</ele>
        <time>2015-09-05T09:01:03Z</time>
      </trkpt>
      <trkpt lat="43.1788" lon="-4.80034">
        <ele>1766.633</ele>
        <time>2015-09-05T09:01:28Z</time>
      </trkpt>
      <trkpt lat="43.17883" lon="-4.80037">
        <ele>1768.592</ele>
        <time>2015-09-05T09:01:39Z</time>
      </trkpt>
      <trkpt lat="43.17885" lon="-4.80041">
        <ele>1771.498</ele>
        <time>2015-09-05T09:02:06Z</time>
      </trkpt>
      <trkpt lat="43.17889" lon="-4.80043">
        <ele>1772.883</ele>
        <time>2015-09-05T09:02:16Z</time>
      </trkpt>
      <trkpt lat="43.17896" lon="-4.80043">
        <ele>1778.188</ele>
        <time>2015-09-05T09:02:44Z</time>
      </trkpt>
      <trkpt lat="43.17899" lon="-4.8004">
        <ele>1779.126</ele>
        <time>2015-09-05T09:03:10Z</time>
      </trkpt>
      <trkpt lat="43.17899" lon="-4.80041">
        <ele>1779.108</ele>
        <time>2015-09-05T09:03:34Z</time>
      </trkpt>
      <trkpt lat="43.17907" lon="-4.8006">
        <ele>1786.338</ele>
        <time>2015-09-05T09:05:59Z</time>
      </trkpt>
      <trkpt lat="43.17909" lon="-4.80062">
        <ele>1788.225</ele>
        <time>2015-09-05T09:06:12Z</time>
      </trkpt>
      <trkpt lat="43.17914" lon="-4.80062">
        <ele>1791.179</ele>
        <time>2015-09-05T09:06:24Z</time>
      </trkpt>
      <trkpt lat="43.17916" lon="-4.80062">
        <ele>1793.04</ele>
        <time>2015-09-05T09:06:37Z</time>
      </trkpt>
      <trkpt lat="43.17918" lon="-4.80068">
        <ele>1794.914</ele>
        <time>2015-09-05T09:06:54Z</time>
      </trkpt>
      <trkpt lat="43.17921" lon="-4.8007">
        <ele>1796.854</ele>
        <time>2015-09-05T09:07:04Z</time>
      </trkpt>
      <trkpt lat="43.17927" lon="-4.80074">
        <ele>1799.711</ele>
        <time>2015-09-05T09:07:30Z</time>
      </trkpt>
      <trkpt lat="43.1793" lon="-4.80073">
        <ele>1801.236</ele>
        <time>2015-09-05T09:08:01Z</time>
      </trkpt>
      <trkpt lat="43.17933" lon="-4.8007">
        <ele>1803.125</ele>
        <time>2015-09-05T09:08:06Z</time>
      </trkpt>
      <trkpt lat="43.17941" lon="-4.80064">
        <ele>1805.531</ele>
        <time>2015-09-05T09:08:31Z</time>
      </trkpt>
      <trkpt lat="43.17943" lon="-4.80061">
        <ele>1806.916</ele>
        <time>2015-09-05T09:08:45Z</time>
      </trkpt>
      <trkpt lat="43.17949" lon="-4.80054">
        <ele>1810.812</ele>
        <time>2015-09-05T09:09:09Z</time>
      </trkpt>
      <trkpt lat="43.17949" lon="-4.8005">
        <ele>1811.321</ele>
        <time>2015-09-05T09:09:21Z</time>
      </trkpt>
      <trkpt lat="43.17957" lon="-4.80046">
        <ele>1831.043</ele>
        <time>2015-09-05T09:27:26Z</time>
      </trkpt>
      <trkpt lat="43.17957" lon="-4.80046">
        <ele>1835.317</ele>
        <time>2015-09-05T09:27:27Z</time>
      </trkpt>
      <trkpt lat="43.17958" lon="-4.80046">
        <ele>1835.379</ele>
        <time>2015-09-05T09:27:43Z</time>
      </trkpt>
      <trkpt lat="43.17967" lon="-4.80045">
        <ele>1836.728</ele>
        <time>2015-09-05T09:28:13Z</time>
      </trkpt>
      <trkpt lat="43.17969" lon="-4.8004">
        <ele>1840.684</ele>
        <time>2015-09-05T09:28:38Z</time>
      </trkpt>
      <trkpt lat="43.1797" lon="-4.80033">
        <ele>1844.99</ele>
        <time>2015-09-05T09:29:05Z</time>
      </trkpt>
      <trkpt lat="43.17977" lon="-4.80037">
        <ele>1847.375</ele>
        <time>2015-09-05T09:29:23Z</time>
      </trkpt>
      <trkpt lat="43.17975" lon="-4.80027">
        <ele>1851.246</ele>
        <time>2015-09-05T09:29:52Z</time>
      </trkpt>
      <trkpt lat="43.17945" lon="-4.8">
        <ele>1857.988</ele>
        <time>2015-09-05T09:34:02Z</time>
      </trkpt>
      <trkpt lat="43.17947" lon="-4.79988">
        <ele>1859.308</ele>
        <time>2015-09-05T09:34:17Z</time>
      </trkpt>
      <trkpt lat="43.17946" lon="-4.79983">
        <ele>1858.995</ele>
        <time>2015-09-05T09:34:37Z</time>
      </trkpt>
      <trkpt lat="43.17947" lon="-4.79978">
        <ele>1858.941</ele>
        <time>2015-09-05T09:35:13Z</time>
      </trkpt>
      <trkpt lat="43.17948" lon="-4.79975">
        <ele>1858.97</ele>
        <time>2015-09-05T09:35:33Z</time>
      </trkpt>
      <trkpt lat="43.17949" lon="-4.79972">
        <ele>1858.476</ele>
        <time>2015-09-05T09:36:16Z</time>
      </trkpt>
      <trkpt lat="43.17951" lon="-4.79969">
        <ele>1857.91</ele>
        <time>2015-09-05T09:36:56Z</time>
      </trkpt>
      <trkpt lat="43.17951" lon="-4.79969">
        <ele>1857.971</ele>
        <time>2015-09-05T09:37:14Z</time>
      </trkpt>
      <trkpt lat="43.17953" lon="-4.79966">
        <ele>1857.915</ele>
        <time>2015-09-05T09:38:01Z</time>
      </trkpt>
      <trkpt lat="43.17953" lon="-4.79965">
        <ele>1857.908</ele>
        <time>2015-09-05T09:38:24Z</time>
      </trkpt>
      <trkpt lat="43.17953" lon="-4.79965">
        <ele>1857.957</ele>
        <time>2015-09-05T09:39:04Z</time>
      </trkpt>
      <trkpt lat="43.17953" lon="-4.79965">
        <ele>1858.494</ele>
        <time>2015-09-05T09:39:21Z</time>
      </trkpt>
      <trkpt lat="43.17952" lon="-4.79964">
        <ele>1858.438</ele>
        <time>2015-09-05T09:40:08Z</time>
      </trkpt>
      <trkpt lat="43.17956" lon="-4.79962">
        <ele>1859.839</ele>
        <time>2015-09-05T09:40:21Z</time>
      </trkpt>
      <trkpt lat="43.17956" lon="-4.79963">
        <ele>1860.333</ele>
        <time>2015-09-05T09:40:42Z</time>
      </trkpt>
      <trkpt lat="43.1796" lon="-4.79959">
        <ele>1863.231</ele>
        <time>2015-09-05T09:41:06Z</time>
      </trkpt>
      <trkpt lat="43.17966" lon="-4.79955">
        <ele>1863.724</ele>
        <time>2015-09-05T09:41:17Z</time>
      </trkpt>
      <trkpt lat="43.1797" lon="-4.79949">
        <ele>1863.75</ele>
        <time>2015-09-05T09:41:45Z</time>
      </trkpt>
      <trkpt lat="43.17972" lon="-4.79948">
        <ele>1863.729</ele>
        <time>2015-09-05T09:41:58Z</time>
      </trkpt>
      <trkpt lat="43.17975" lon="-4.79946">
        <ele>1864.185</ele>
        <time>2015-09-05T09:42:29Z</time>
      </trkpt>
      <trkpt lat="43.17976" lon="-4.79945">
        <ele>1864.67</ele>
        <time>2015-09-05T09:42:46Z</time>
      </trkpt>
      <trkpt lat="43.17978" lon="-4.79948">
        <ele>1866.546</ele>
        <time>2015-09-05T09:43:14Z</time>
      </trkpt>
      <trkpt lat="43.17978" lon="-4.79949">
        <ele>1867.045</ele>
        <time>2015-09-05T09:43:15Z</time>
      </trkpt>
      <trkpt lat="43.17975" lon="-4.79963">
        <ele>1871.857</ele>
        <time>2015-09-05T09:43:38Z</time>
      </trkpt>
      <trkpt lat="43.17975" lon="-4.79963">
        <ele>1872.822</ele>
        <time>2015-09-05T09:43:41Z</time>
      </trkpt>
      <trkpt lat="43.17991" lon="-4.79965">
        <ele>1875.73</ele>
        <time>2015-09-05T09:44:05Z</time>
      </trkpt>
      <trkpt lat="43.17996" lon="-4.79968">
        <ele>1879.586</ele>
        <time>2015-09-05T09:44:30Z</time>
      </trkpt>
      <trkpt lat="43.17999" lon="-4.7997">
        <ele>1880.545</ele>
        <time>2015-09-05T09:44:40Z</time>
      </trkpt>
      <trkpt lat="43.18002" lon="-4.79973">
        <ele>1884.851</ele>
        <time>2015-09-05T09:45:05Z</time>
      </trkpt>
      <trkpt lat="43.18" lon="-4.79977">
        <ele>1885.836</ele>
        <time>2015-09-05T09:45:09Z</time>
      </trkpt>
      <trkpt lat="43.17999" lon="-4.79986">
        <ele>1887.786</ele>
        <time>2015-09-05T09:45:18Z</time>
      </trkpt>
      <trkpt lat="43.17997" lon="-4.79995">
        <ele>1889.66</ele>
        <time>2015-09-05T09:45:28Z</time>
      </trkpt>
      <trkpt lat="43.17995" lon="-4.8001">
        <ele>1893.008</ele>
        <time>2015-09-05T09:45:49Z</time>
      </trkpt>
      <trkpt lat="43.17996" lon="-4.80013">
        <ele>1894.419</ele>
        <time>2015-09-05T09:45:59Z</time>
      </trkpt>
      <trkpt lat="43.18" lon="-4.80013">
        <ele>1897.825</ele>
        <time>2015-09-05T09:46:15Z</time>
      </trkpt>
      <trkpt lat="43.18011" lon="-4.80008">
        <ele>1899.729</ele>
        <time>2015-09-05T09:46:45Z</time>
      </trkpt>
      <trkpt lat="43.1802" lon="-4.80006">
        <ele>1901.67</ele>
        <time>2015-09-05T09:47:00Z</time>
      </trkpt>
      <trkpt lat="43.18037" lon="-4.80003">
        <ele>1906.074</ele>
        <time>2015-09-05T09:47:24Z</time>
      </trkpt>
      <trkpt lat="43.18038" lon="-4.80003">
        <ele>1906.931</ele>
        <time>2015-09-05T09:47:27Z</time>
      </trkpt>
      <trkpt lat="43.18036" lon="-4.8001">
        <ele>1910.307</ele>
        <time>2015-09-05T09:47:44Z</time>
      </trkpt>
      <trkpt lat="43.18033" lon="-4.80014">
        <ele>1912.208</ele>
        <time>2015-09-05T09:47:52Z</time>
      </trkpt>
      <trkpt lat="43.18031" lon="-4.80027">
        <ele>1917.053</ele>
        <time>2015-09-05T09:48:16Z</time>
      </trkpt>
      <trkpt lat="43.1803" lon="-4.80031">
        <ele>1917.59</ele>
        <time>2015-09-05T09:48:20Z</time>
      </trkpt>
      <trkpt lat="43.18039" lon="-4.80032">
        <ele>1921.814</ele>
        <time>2015-09-05T09:48:43Z</time>
      </trkpt>
      <trkpt lat="43.18045" lon="-4.80034">
        <ele>1925.28</ele>
        <time>2015-09-05T09:49:06Z</time>
      </trkpt>
      <trkpt lat="43.18044" lon="-4.8004">
        <ele>1927.639</ele>
        <time>2015-09-05T09:49:19Z</time>
      </trkpt>
      <trkpt lat="43.18042" lon="-4.80054">
        <ele>1932.487</ele>
        <time>2015-09-05T09:49:43Z</time>
      </trkpt>
      <trkpt lat="43.18047" lon="-4.80055">
        <ele>1934.815</ele>
        <time>2015-09-05T09:49:56Z</time>
      </trkpt>
      <trkpt lat="43.18054" lon="-4.80054">
        <ele>1938.692</ele>
        <time>2015-09-05T09:50:16Z</time>
      </trkpt>
      <trkpt lat="43.18054" lon="-4.80057">
        <ele>1939.681</ele>
        <time>2015-09-05T09:50:25Z</time>
      </trkpt>
      <trkpt lat="43.18054" lon="-4.80057">
        <ele>1940.167</ele>
        <time>2015-09-05T09:51:00Z</time>
      </trkpt>
      <trkpt lat="43.18053" lon="-4.80065">
        <ele>1941.522</ele>
        <time>2015-09-05T09:51:11Z</time>
      </trkpt>
      <trkpt lat="43.18053" lon="-4.80072">
        <ele>1945.938</ele>
        <time>2015-09-05T09:51:31Z</time>
      </trkpt>
      <trkpt lat="43.18056" lon="-4.80074">
        <ele>1947.317</ele>
        <time>2015-09-05T09:51:39Z</time>
      </trkpt>
      <trkpt lat="43.18056" lon="-4.80086">
        <ele>1951.626</ele>
        <time>2015-09-05T09:52:03Z</time>
      </trkpt>
      <trkpt lat="43.18056" lon="-4.80102">
        <ele>1955.508</ele>
        <time>2015-09-05T09:52:27Z</time>
      </trkpt>
      <trkpt lat="43.18056" lon="-4.80106">
        <ele>1956.963</ele>
        <time>2015-09-05T09:52:39Z</time>
      </trkpt>
      <trkpt lat="43.18057" lon="-4.80105">
        <ele>1956.969</ele>
        <time>2015-09-05T09:53:15Z</time>
      </trkpt>
      <trkpt lat="43.18057" lon="-4.80105">
        <ele>1956.928</ele>
        <time>2015-09-05T09:53:31Z</time>
      </trkpt>
      <trkpt lat="43.18058" lon="-4.80103">
        <ele>1956.954</ele>
        <time>2015-09-05T09:54:16Z</time>
      </trkpt>
      <trkpt lat="43.1806" lon="-4.80107">
        <ele>1958.319</ele>
        <time>2015-09-05T09:54:26Z</time>
      </trkpt>
      <trkpt lat="43.18067" lon="-4.80107">
        <ele>1963.256</ele>
        <time>2015-09-05T09:54:51Z</time>
      </trkpt>
      <trkpt lat="43.18069" lon="-4.80107">
        <ele>1965.159</ele>
        <time>2015-09-05T09:55:02Z</time>
      </trkpt>
      <trkpt lat="43.18068" lon="-4.8011">
        <ele>1966.008</ele>
        <time>2015-09-05T09:55:20Z</time>
      </trkpt>
      <trkpt lat="43.18069" lon="-4.80118">
        <ele>1967.095</ele>
        <time>2015-09-05T09:55:27Z</time>
      </trkpt>
      <trkpt lat="43.18071" lon="-4.80126">
        <ele>1969.992</ele>
        <time>2015-09-05T09:55:38Z</time>
      </trkpt>
      <trkpt lat="43.18074" lon="-4.80134">
        <ele>1973.226</ele>
        <time>2015-09-05T09:56:03Z</time>
      </trkpt>
      <trkpt lat="43.18074" lon="-4.80133">
        <ele>1973.787</ele>
        <time>2015-09-05T09:56:21Z</time>
      </trkpt>
      <trkpt lat="43.18079" lon="-4.80138">
        <ele>1977.141</ele>
        <time>2015-09-05T09:56:44Z</time>
      </trkpt>
      <trkpt lat="43.18081" lon="-4.80142">
        <ele>1979.088</ele>
        <time>2015-09-05T09:56:54Z</time>
      </trkpt>
      <trkpt lat="43.18085" lon="-4.80148">
        <ele>1983.326</ele>
        <time>2015-09-05T09:57:18Z</time>
      </trkpt>
      <trkpt lat="43.18086" lon="-4.80153">
        <ele>1985.308</ele>
        <time>2015-09-05T09:57:28Z</time>
      </trkpt>
      <trkpt lat="43.1809" lon="-4.80161">
        <ele>1989.198</ele>
        <time>2015-09-05T09:57:50Z</time>
      </trkpt>
      <trkpt lat="43.18093" lon="-4.80165">
        <ele>1990.615</ele>
        <time>2015-09-05T09:57:59Z</time>
      </trkpt>
      <trkpt lat="43.18095" lon="-4.80172">
        <ele>1993.939</ele>
        <time>2015-09-05T09:58:24Z</time>
      </trkpt>
      <trkpt lat="43.18098" lon="-4.8018">
        <ele>1997.895</ele>
        <time>2015-09-05T09:58:43Z</time>
      </trkpt>
      <trkpt lat="43.18098" lon="-4.80181">
        <ele>1998.764</ele>
        <time>2015-09-05T09:58:56Z</time>
      </trkpt>
      <trkpt lat="43.18097" lon="-4.80192">
        <ele>2001.133</ele>
        <time>2015-09-05T09:59:25Z</time>
      </trkpt>
      <trkpt lat="43.18096" lon="-4.802">
        <ele>2003.026</ele>
        <time>2015-09-05T09:59:36Z</time>
      </trkpt>
      <trkpt lat="43.18099" lon="-4.80213">
        <ele>2007.418</ele>
        <time>2015-09-05T09:59:58Z</time>
      </trkpt>
      <trkpt lat="43.18101" lon="-4.80216">
        <ele>2009.317</ele>
        <time>2015-09-05T10:00:08Z</time>
      </trkpt>
      <trkpt lat="43.18105" lon="-4.80219">
        <ele>2012.743</ele>
        <time>2015-09-05T10:00:32Z</time>
      </trkpt>
      <trkpt lat="43.18105" lon="-4.80218">
        <ele>2014.698</ele>
        <time>2015-09-05T10:00:44Z</time>
      </trkpt>
      <trkpt lat="43.18109" lon="-4.80218">
        <ele>2015.154</ele>
        <time>2015-09-05T10:01:17Z</time>
      </trkpt>
      <trkpt lat="43.18111" lon="-4.80224">
        <ele>2017.972</ele>
        <time>2015-09-05T10:01:49Z</time>
      </trkpt>
      <trkpt lat="43.18111" lon="-4.80228">
        <ele>2018.913</ele>
        <time>2015-09-05T10:01:54Z</time>
      </trkpt>
      <trkpt lat="43.18111" lon="-4.80242">
        <ele>2021.308</ele>
        <time>2015-09-05T10:02:15Z</time>
      </trkpt>
      <trkpt lat="43.18109" lon="-4.8025">
        <ele>2023.278</ele>
        <time>2015-09-05T10:02:27Z</time>
      </trkpt>
      <trkpt lat="43.18108" lon="-4.80257">
        <ele>2024.224</ele>
        <time>2015-09-05T10:02:35Z</time>
      </trkpt>
      <trkpt lat="43.18107" lon="-4.80261">
        <ele>2024.253</ele>
        <time>2015-09-05T10:02:40Z</time>
      </trkpt>
      <trkpt lat="43.18104" lon="-4.80269">
        <ele>2023.219</ele>
        <time>2015-09-05T10:02:50Z</time>
      </trkpt>
      <trkpt lat="43.18104" lon="-4.80273">
        <ele>2023.274</ele>
        <time>2015-09-05T10:02:54Z</time>
      </trkpt>
      <trkpt lat="43.18098" lon="-4.8028">
        <ele>2024.716</ele>
        <time>2015-09-05T10:03:23Z</time>
      </trkpt>
      <trkpt lat="43.18096" lon="-4.80285">
        <ele>2026.113</ele>
        <time>2015-09-05T10:03:53Z</time>
      </trkpt>
      <trkpt lat="43.18097" lon="-4.80287">
        <ele>2027.608</ele>
        <time>2015-09-05T10:04:12Z</time>
      </trkpt>
      <trkpt lat="43.18102" lon="-4.80295">
        <ele>2031.911</ele>
        <time>2015-09-05T10:04:31Z</time>
      </trkpt>
      <trkpt lat="43.181" lon="-4.80298">
        <ele>2033.888</ele>
        <time>2015-09-05T10:04:41Z</time>
      </trkpt>
      <trkpt lat="43.18103" lon="-4.80301">
        <ele>2035.322</ele>
        <time>2015-09-05T10:05:14Z</time>
      </trkpt>
      <trkpt lat="43.18101" lon="-4.80306">
        <ele>2036.753</ele>
        <time>2015-09-05T10:05:25Z</time>
      </trkpt>
      <trkpt lat="43.181" lon="-4.80312">
        <ele>2040.117</ele>
        <time>2015-09-05T10:05:45Z</time>
      </trkpt>
      <trkpt lat="43.181" lon="-4.80314">
        <ele>2042.521</ele>
        <time>2015-09-05T10:05:56Z</time>
      </trkpt>
      <trkpt lat="43.181" lon="-4.80321">
        <ele>2045.805</ele>
        <time>2015-09-05T10:06:17Z</time>
      </trkpt>
      <trkpt lat="43.18099" lon="-4.80325">
        <ele>2047.808</ele>
        <time>2015-09-05T10:06:28Z</time>
      </trkpt>
      <trkpt lat="43.18105" lon="-4.80335">
        <ele>2051.172</ele>
        <time>2015-09-05T10:06:57Z</time>
      </trkpt>
      <trkpt lat="43.18105" lon="-4.8034">
        <ele>2054.038</ele>
        <time>2015-09-05T10:07:22Z</time>
      </trkpt>
      <trkpt lat="43.18103" lon="-4.80343">
        <ele>2055.983</ele>
        <time>2015-09-05T10:07:33Z</time>
      </trkpt>
      <trkpt lat="43.18101" lon="-4.80352">
        <ele>2058.339</ele>
        <time>2015-09-05T10:07:48Z</time>
      </trkpt>
      <trkpt lat="43.18097" lon="-4.80356">
        <ele>2059.878</ele>
        <time>2015-09-05T10:07:59Z</time>
      </trkpt>
      <trkpt lat="43.18093" lon="-4.80365">
        <ele>2062.747</ele>
        <time>2015-09-05T10:08:22Z</time>
      </trkpt>
      <trkpt lat="43.1809" lon="-4.8037">
        <ele>2064.611</ele>
        <time>2015-09-05T10:08:35Z</time>
      </trkpt>
      <trkpt lat="43.18087" lon="-4.80378">
        <ele>2068.493</ele>
        <time>2015-09-05T10:09:00Z</time>
      </trkpt>
      <trkpt lat="43.18083" lon="-4.80385">
        <ele>2070.882</ele>
        <time>2015-09-05T10:09:10Z</time>
      </trkpt>
      <trkpt lat="43.18078" lon="-4.8039">
        <ele>2073.758</ele>
        <time>2015-09-05T10:09:31Z</time>
      </trkpt>
      <trkpt lat="43.18075" lon="-4.80399">
        <ele>2077.194</ele>
        <time>2015-09-05T10:09:54Z</time>
      </trkpt>
      <trkpt lat="43.18074" lon="-4.80403">
        <ele>2079.059</ele>
        <time>2015-09-05T10:10:06Z</time>
      </trkpt>
      <trkpt lat="43.18068" lon="-4.80415">
        <ele>2082.496</ele>
        <time>2015-09-05T10:10:30Z</time>
      </trkpt>
      <trkpt lat="43.18068" lon="-4.80414">
        <ele>2081.431</ele>
        <time>2015-09-05T10:10:49Z</time>
      </trkpt>
      <trkpt lat="43.18069" lon="-4.80432">
        <ele>2087.608</ele>
        <time>2015-09-05T10:18:43Z</time>
      </trkpt>
      <trkpt lat="43.18072" lon="-4.80434">
        <ele>2089.61</ele>
        <time>2015-09-05T10:18:55Z</time>
      </trkpt>
      <trkpt lat="43.1808" lon="-4.80436">
        <ele>2093.466</ele>
        <time>2015-09-05T10:19:18Z</time>
      </trkpt>
      <trkpt lat="43.18077" lon="-4.80443">
        <ele>2095.845</ele>
        <time>2015-09-05T10:19:31Z</time>
      </trkpt>
      <trkpt lat="43.18077" lon="-4.80451">
        <ele>2099.731</ele>
        <time>2015-09-05T10:19:54Z</time>
      </trkpt>
      <trkpt lat="43.18088" lon="-4.80454">
        <ele>2103.595</ele>
        <time>2015-09-05T10:20:21Z</time>
      </trkpt>
      <trkpt lat="43.18089" lon="-4.80457">
        <ele>2105.432</ele>
        <time>2015-09-05T10:20:32Z</time>
      </trkpt>
      <trkpt lat="43.18081" lon="-4.80466">
        <ele>2108.311</ele>
        <time>2015-09-05T10:20:55Z</time>
      </trkpt>
      <trkpt lat="43.1808" lon="-4.80466">
        <ele>2108.808</ele>
        <time>2015-09-05T10:21:05Z</time>
      </trkpt>
      <trkpt lat="43.18073" lon="-4.80472">
        <ele>2111.293</ele>
        <time>2015-09-05T10:21:30Z</time>
      </trkpt>
      <trkpt lat="43.18071" lon="-4.80473">
        <ele>2113.64</ele>
        <time>2015-09-05T10:21:41Z</time>
      </trkpt>
      <trkpt lat="43.18072" lon="-4.80478">
        <ele>2115.544</ele>
        <time>2015-09-05T10:22:13Z</time>
      </trkpt>
      <trkpt lat="43.18072" lon="-4.80482">
        <ele>2117.935</ele>
        <time>2015-09-05T10:22:26Z</time>
      </trkpt>
      <trkpt lat="43.18064" lon="-4.80496">
        <ele>2121.379</ele>
        <time>2015-09-05T10:22:49Z</time>
      </trkpt>
      <trkpt lat="43.1806" lon="-4.80501">
        <ele>2121.868</ele>
        <time>2015-09-05T10:23:01Z</time>
      </trkpt>
      <trkpt lat="43.1806" lon="-4.80512">
        <ele>2125.626</ele>
        <time>2015-09-05T10:23:27Z</time>
      </trkpt>
      <trkpt lat="43.18056" lon="-4.80521">
        <ele>2129.577</ele>
        <time>2015-09-05T10:23:50Z</time>
      </trkpt>
      <trkpt lat="43.18052" lon="-4.80525">
        <ele>2130.976</ele>
        <time>2015-09-05T10:24:01Z</time>
      </trkpt>
      <trkpt lat="43.18046" lon="-4.80531">
        <ele>2133.332</ele>
        <time>2015-09-05T10:24:26Z</time>
      </trkpt>
      <trkpt lat="43.18047" lon="-4.80531">
        <ele>2133.327</ele>
        <time>2015-09-05T10:24:50Z</time>
      </trkpt>
      <trkpt lat="43.18038" lon="-4.80538">
        <ele>2137.253</ele>
        <time>2015-09-05T10:25:16Z</time>
      </trkpt>
      <trkpt lat="43.18034" lon="-4.80543">
        <ele>2139.152</ele>
        <time>2015-09-05T10:25:28Z</time>
      </trkpt>
      <trkpt lat="43.18026" lon="-4.80556">
        <ele>2142.409</ele>
        <time>2015-09-05T10:25:51Z</time>
      </trkpt>
      <trkpt lat="43.18018" lon="-4.80562">
        <ele>2144.819</ele>
        <time>2015-09-05T10:26:05Z</time>
      </trkpt>
      <trkpt lat="43.18011" lon="-4.80565">
        <ele>2147.712</ele>
        <time>2015-09-05T10:26:25Z</time>
      </trkpt>
      <trkpt lat="43.18004" lon="-4.80569">
        <ele>2151.678</ele>
        <time>2015-09-05T10:26:52Z</time>
      </trkpt>
      <trkpt lat="43.18005" lon="-4.80572">
        <ele>2153.097</ele>
        <time>2015-09-05T10:27:06Z</time>
      </trkpt>
      <trkpt lat="43.18002" lon="-4.80576">
        <ele>2155.473</ele>
        <time>2015-09-05T10:27:28Z</time>
      </trkpt>
      <trkpt lat="43.18002" lon="-4.80578">
        <ele>2155.958</ele>
        <time>2015-09-05T10:27:39Z</time>
      </trkpt>
      <trkpt lat="43.18005" lon="-4.80584">
        <ele>2158.899</ele>
        <time>2015-09-05T10:27:59Z</time>
      </trkpt>
      <trkpt lat="43.18004" lon="-4.80586">
        <ele>2160.207</ele>
        <time>2015-09-05T10:28:10Z</time>
      </trkpt>
      <trkpt lat="43.17995" lon="-4.80598">
        <ele>2163.608</ele>
        <time>2015-09-05T10:28:36Z</time>
      </trkpt>
      <trkpt lat="43.17992" lon="-4.80607">
        <ele>2166.07</ele>
        <time>2015-09-05T10:28:50Z</time>
      </trkpt>
      <trkpt lat="43.17993" lon="-4.80608">
        <ele>2167.026</ele>
        <time>2015-09-05T10:29:24Z</time>
      </trkpt>
      <trkpt lat="43.17991" lon="-4.80613">
        <ele>2167.085</ele>
        <time>2015-09-05T10:36:10Z</time>
      </trkpt>
      <trkpt lat="43.17984" lon="-4.80616">
        <ele>2167.961</ele>
        <time>2015-09-05T10:36:40Z</time>
      </trkpt>
      <trkpt lat="43.17976" lon="-4.80628">
        <ele>2173.235</ele>
        <time>2015-09-05T10:37:05Z</time>
      </trkpt>
      <trkpt lat="43.17972" lon="-4.80633">
        <ele>2175.669</ele>
        <time>2015-09-05T10:37:17Z</time>
      </trkpt>
      <trkpt lat="43.17964" lon="-4.80638">
        <ele>2179.924</ele>
        <time>2015-09-05T10:37:40Z</time>
      </trkpt>
      <trkpt lat="43.1796" lon="-4.80641">
        <ele>2182.308</ele>
        <time>2015-09-05T10:37:52Z</time>
      </trkpt>
      <trkpt lat="43.17955" lon="-4.80639">
        <ele>2184.786</ele>
        <time>2015-09-05T10:38:15Z</time>
      </trkpt>
      <trkpt lat="43.17955" lon="-4.80638">
        <ele>2185.293</ele>
        <time>2015-09-05T10:38:29Z</time>
      </trkpt>
      <trkpt lat="43.17953" lon="-4.80633">
        <ele>2186.217</ele>
        <time>2015-09-05T10:40:58Z</time>
      </trkpt>
      <trkpt lat="43.1795" lon="-4.80634">
        <ele>2187.188</ele>
        <time>2015-09-05T10:41:07Z</time>
      </trkpt>
      <trkpt lat="43.17943" lon="-4.80658">
        <ele>2190.522</ele>
        <time>2015-09-05T10:45:58Z</time>
      </trkpt>
      <trkpt lat="43.17938" lon="-4.80659">
        <ele>2193.907</ele>
        <time>2015-09-05T10:46:24Z</time>
      </trkpt>
      <trkpt lat="43.17937" lon="-4.80668">
        <ele>2197.217</ele>
        <time>2015-09-05T10:46:42Z</time>
      </trkpt>
      <trkpt lat="43.17935" lon="-4.8068">
        <ele>2201.169</ele>
        <time>2015-09-05T10:47:07Z</time>
      </trkpt>
      <trkpt lat="43.17933" lon="-4.80686">
        <ele>2202.588</ele>
        <time>2015-09-05T10:47:17Z</time>
      </trkpt>
      <trkpt lat="43.17931" lon="-4.80699">
        <ele>2206.474</ele>
        <time>2015-09-05T10:47:39Z</time>
      </trkpt>
      <trkpt lat="43.1793" lon="-4.80703">
        <ele>2208.349</ele>
        <time>2015-09-05T10:47:53Z</time>
      </trkpt>
      <trkpt lat="43.17928" lon="-4.80705">
        <ele>2208.375</ele>
        <time>2015-09-05T10:48:29Z</time>
      </trkpt>
      <trkpt lat="43.17924" lon="-4.80714">
        <ele>2209.724</ele>
        <time>2015-09-05T10:48:41Z</time>
      </trkpt>
      <trkpt lat="43.17921" lon="-4.80727">
        <ele>2214.16</ele>
        <time>2015-09-05T10:49:08Z</time>
      </trkpt>
      <trkpt lat="43.1792" lon="-4.80734">
        <ele>2217.408</ele>
        <time>2015-09-05T10:49:29Z</time>
      </trkpt>
      <trkpt lat="43.17922" lon="-4.8074">
        <ele>2219.349</ele>
        <time>2015-09-05T10:49:39Z</time>
      </trkpt>
      <trkpt lat="43.17925" lon="-4.80753">
        <ele>2222.725</ele>
        <time>2015-09-05T10:50:02Z</time>
      </trkpt>
      <trkpt lat="43.17924" lon="-4.80757">
        <ele>2224.654</ele>
        <time>2015-09-05T10:50:14Z</time>
      </trkpt>
      <trkpt lat="43.17921" lon="-4.80757">
        <ele>2226.13</ele>
        <time>2015-09-05T10:50:41Z</time>
      </trkpt>
      <trkpt lat="43.17921" lon="-4.80763">
        <ele>2227.065</ele>
        <time>2015-09-05T10:50:58Z</time>
      </trkpt>
      <trkpt lat="43.17918" lon="-4.80775">
        <ele>2228.548</ele>
        <time>2015-09-05T10:51:14Z</time>
      </trkpt>
      <trkpt lat="43.17919" lon="-4.80784">
        <ele>2230.961</ele>
        <time>2015-09-05T10:51:30Z</time>
      </trkpt>
      <trkpt lat="43.17914" lon="-4.80787">
        <ele>2233.308</ele>
        <time>2015-09-05T10:52:01Z</time>
      </trkpt>
      <trkpt lat="43.17912" lon="-4.80787">
        <ele>2234.735</ele>
        <time>2015-09-05T10:52:15Z</time>
      </trkpt>
      <trkpt lat="43.1791" lon="-4.80792">
        <ele>2237.651</ele>
        <time>2015-09-05T10:52:41Z</time>
      </trkpt>
      <trkpt lat="43.17908" lon="-4.80798">
        <ele>2240.065</ele>
        <time>2015-09-05T10:53:13Z</time>
      </trkpt>
      <trkpt lat="43.17907" lon="-4.80804">
        <ele>2241.036</ele>
        <time>2015-09-05T10:53:24Z</time>
      </trkpt>
      <trkpt lat="43.17906" lon="-4.80807">
        <ele>2241.09</ele>
        <time>2015-09-05T10:54:06Z</time>
      </trkpt>
      <trkpt lat="43.17906" lon="-4.80808">
        <ele>2241.075</ele>
        <time>2015-09-05T10:54:24Z</time>
      </trkpt>
      <trkpt lat="43.17906" lon="-4.80809">
        <ele>2241.02</ele>
        <time>2015-09-05T10:55:03Z</time>
      </trkpt>
      <trkpt lat="43.17906" lon="-4.8081">
        <ele>2241.008</ele>
        <time>2015-09-05T10:55:30Z</time>
      </trkpt>
      <trkpt lat="43.17905" lon="-4.8081">
        <ele>2241.027</ele>
        <time>2015-09-05T10:56:21Z</time>
      </trkpt>
      <trkpt lat="43.17904" lon="-4.8081">
        <ele>2241.574</ele>
        <time>2015-09-05T10:56:48Z</time>
      </trkpt>
      <trkpt lat="43.17904" lon="-4.80811">
        <ele>2241.928</ele>
        <time>2015-09-05T10:57:28Z</time>
      </trkpt>
      <trkpt lat="43.17904" lon="-4.8081">
        <ele>2242.434</ele>
        <time>2015-09-05T10:58:06Z</time>
      </trkpt>
      <trkpt lat="43.17904" lon="-4.80811">
        <ele>2242.923</ele>
        <time>2015-09-05T10:58:21Z</time>
      </trkpt>
      <trkpt lat="43.17899" lon="-4.80825">
        <ele>2242.453</ele>
        <time>2015-09-05T10:58:38Z</time>
      </trkpt>
      <trkpt lat="43.17898" lon="-4.80827">
        <ele>2243.408</ele>
        <time>2015-09-05T10:58:48Z</time>
      </trkpt>
      <trkpt lat="43.17895" lon="-4.80836">
        <ele>2246.326</ele>
        <time>2015-09-05T10:59:12Z</time>
      </trkpt>
      <trkpt lat="43.17895" lon="-4.80838">
        <ele>2246.725</ele>
        <time>2015-09-05T10:59:28Z</time>
      </trkpt>
      <trkpt lat="43.17893" lon="-4.80842">
        <ele>2248.731</ele>
        <time>2015-09-05T10:59:57Z</time>
      </trkpt>
      <trkpt lat="43.17893" lon="-4.80845">
        <ele>2249.616</ele>
        <time>2015-09-05T11:00:07Z</time>
      </trkpt>
      <trkpt lat="43.17893" lon="-4.80849">
        <ele>2253.032</ele>
        <time>2015-09-05T11:00:34Z</time>
      </trkpt>
      <trkpt lat="43.17889" lon="-4.80855">
        <ele>2257.814</ele>
        <time>2015-09-05T11:00:56Z</time>
      </trkpt>
      <trkpt lat="43.17887" lon="-4.80857">
        <ele>2258.854</ele>
        <time>2015-09-05T11:01:10Z</time>
      </trkpt>
      <trkpt lat="43.17885" lon="-4.8086">
        <ele>2261.608</ele>
        <time>2015-09-05T11:01:33Z</time>
      </trkpt>
      <trkpt lat="43.17879" lon="-4.80864">
        <ele>2263.172</ele>
        <time>2015-09-05T11:01:44Z</time>
      </trkpt>
      <trkpt lat="43.17878" lon="-4.80873">
        <ele>2266.088</ele>
        <time>2015-09-05T11:02:10Z</time>
      </trkpt>
      <trkpt lat="43.17878" lon="-4.80879">
        <ele>2268.467</ele>
        <time>2015-09-05T11:02:22Z</time>
      </trkpt>
      <trkpt lat="43.17874" lon="-4.80891">
        <ele>2272.233</ele>
        <time>2015-09-05T11:02:49Z</time>
      </trkpt>
      <trkpt lat="43.1787" lon="-4.80897">
        <ele>2274.648</ele>
        <time>2015-09-05T11:03:01Z</time>
      </trkpt>
      <trkpt lat="43.17873" lon="-4.80909">
        <ele>2277.553</ele>
        <time>2015-09-05T11:03:24Z</time>
      </trkpt>
      <trkpt lat="43.17868" lon="-4.80916">
        <ele>2278.904</ele>
        <time>2015-09-05T11:03:36Z</time>
      </trkpt>
      <trkpt lat="43.17861" lon="-4.8092">
        <ele>2279.908</ele>
        <time>2015-09-05T11:04:00Z</time>
      </trkpt>
      <trkpt lat="43.17861" lon="-4.80924">
        <ele>2280.995</ele>
        <time>2015-09-05T11:10:24Z</time>
      </trkpt>
      <trkpt lat="43.17859" lon="-4.80925">
        <ele>2281.482</ele>
        <time>2015-09-05T11:10:35Z</time>
      </trkpt>
      <trkpt lat="43.17855" lon="-4.80933">
        <ele>2280.986</ele>
        <time>2015-09-05T11:10:55Z</time>
      </trkpt>
      <trkpt lat="43.17856" lon="-4.80936">
        <ele>2282.367</ele>
        <time>2015-09-05T11:11:09Z</time>
      </trkpt>
      <trkpt lat="43.17855" lon="-4.80945">
        <ele>2286.631</ele>
        <time>2015-09-05T11:11:33Z</time>
      </trkpt>
      <trkpt lat="43.17856" lon="-4.8095">
        <ele>2288.146</ele>
        <time>2015-09-05T11:11:44Z</time>
      </trkpt>
      <trkpt lat="43.17856" lon="-4.80969">
        <ele>2291.416</ele>
        <time>2015-09-05T11:12:10Z</time>
      </trkpt>
      <trkpt lat="43.17855" lon="-4.80975">
        <ele>2292.908</ele>
        <time>2015-09-05T11:12:22Z</time>
      </trkpt>
      <trkpt lat="43.17853" lon="-4.80981">
        <ele>2294.374</ele>
        <time>2015-09-05T11:12:50Z</time>
      </trkpt>
      <trkpt lat="43.17847" lon="-4.80995">
        <ele>2297.78</ele>
        <time>2015-09-05T11:13:16Z</time>
      </trkpt>
      <trkpt lat="43.17844" lon="-4.81005">
        <ele>2298.285</ele>
        <time>2015-09-05T11:13:32Z</time>
      </trkpt>
      <trkpt lat="43.17838" lon="-4.81012">
        <ele>2299.621</ele>
        <time>2015-09-05T11:13:58Z</time>
      </trkpt>
      <trkpt lat="43.17837" lon="-4.81017">
        <ele>2301.51</ele>
        <time>2015-09-05T11:14:09Z</time>
      </trkpt>
      <trkpt lat="43.17834" lon="-4.8103">
        <ele>2304.992</ele>
        <time>2015-09-05T11:14:31Z</time>
      </trkpt>
      <trkpt lat="43.17835" lon="-4.81032">
        <ele>2305.411</ele>
        <time>2015-09-05T11:14:34Z</time>
      </trkpt>
      <trkpt lat="43.17831" lon="-4.8104">
        <ele>2308.384</ele>
        <time>2015-09-05T11:14:58Z</time>
      </trkpt>
      <trkpt lat="43.17829" lon="-4.81042">
        <ele>2309.233</ele>
        <time>2015-09-05T11:15:08Z</time>
      </trkpt>
      <trkpt lat="43.17822" lon="-4.81043">
        <ele>2313.629</ele>
        <time>2015-09-05T11:15:35Z</time>
      </trkpt>
      <trkpt lat="43.17815" lon="-4.81053">
        <ele>2316.915</ele>
        <time>2015-09-05T11:15:56Z</time>
      </trkpt>
      <trkpt lat="43.17812" lon="-4.8106">
        <ele>2318.87</ele>
        <time>2015-09-05T11:16:09Z</time>
      </trkpt>
      <trkpt lat="43.17804" lon="-4.81069">
        <ele>2322.291</ele>
        <time>2015-09-05T11:16:35Z</time>
      </trkpt>
      <trkpt lat="43.178" lon="-4.8107">
        <ele>2324.181</ele>
        <time>2015-09-05T11:16:49Z</time>
      </trkpt>
      <trkpt lat="43.17795" lon="-4.81078">
        <ele>2329.408</ele>
        <time>2015-09-05T11:17:17Z</time>
      </trkpt>
      <trkpt lat="43.17791" lon="-4.81077">
        <ele>2330.41</ele>
        <time>2015-09-05T11:17:28Z</time>
      </trkpt>
      <trkpt lat="43.17784" lon="-4.81084">
        <ele>2333.356</ele>
        <time>2015-09-05T11:17:52Z</time>
      </trkpt>
      <trkpt lat="43.17781" lon="-4.81092">
        <ele>2334.725</ele>
        <time>2015-09-05T11:18:04Z</time>
      </trkpt>
      <trkpt lat="43.17781" lon="-4.81102">
        <ele>2338.141</ele>
        <time>2015-09-05T11:18:29Z</time>
      </trkpt>
      <trkpt lat="43.17782" lon="-4.81116">
        <ele>2338.526</ele>
        <time>2015-09-05T11:18:43Z</time>
      </trkpt>
      <trkpt lat="43.1778" lon="-4.81132">
        <ele>2341.027</ele>
        <time>2015-09-05T11:19:08Z</time>
      </trkpt>
      <trkpt lat="43.17777" lon="-4.81131">
        <ele>2341.414</ele>
        <time>2015-09-05T11:19:41Z</time>
      </trkpt>
      <trkpt lat="43.17777" lon="-4.8113">
        <ele>2341.408</ele>
        <time>2015-09-05T11:19:42Z</time>
      </trkpt>
      <trkpt lat="43.17765" lon="-4.81123">
        <ele>2345.392</ele>
        <time>2015-09-05T11:20:06Z</time>
      </trkpt>
      <trkpt lat="43.17763" lon="-4.8112">
        <ele>2346.769</ele>
        <time>2015-09-05T11:20:13Z</time>
      </trkpt>
      <trkpt lat="43.17753" lon="-4.81118">
        <ele>2349.163</ele>
        <time>2015-09-05T11:20:30Z</time>
      </trkpt>
      <trkpt lat="43.17745" lon="-4.81118">
        <ele>2350.654</ele>
        <time>2015-09-05T11:20:42Z</time>
      </trkpt>
      <trkpt lat="43.17736" lon="-4.81113">
        <ele>2354.438</ele>
        <time>2015-09-05T11:21:03Z</time>
      </trkpt>
      <trkpt lat="43.17729" lon="-4.81111">
        <ele>2355.961</ele>
        <time>2015-09-05T11:21:15Z</time>
      </trkpt>
      <trkpt lat="43.17716" lon="-4.81111">
        <ele>2358.313</ele>
        <time>2015-09-05T11:21:38Z</time>
      </trkpt>
      <trkpt lat="43.17704" lon="-4.81122">
        <ele>2361.137</ele>
        <time>2015-09-05T11:22:07Z</time>
      </trkpt>
      <trkpt lat="43.17698" lon="-4.81127">
        <ele>2362.156</ele>
        <time>2015-09-05T11:22:21Z</time>
      </trkpt>
      <trkpt lat="43.1769" lon="-4.81136">
        <ele>2363.512</ele>
        <time>2015-09-05T11:22:53Z</time>
      </trkpt>
      <trkpt lat="43.17683" lon="-4.81141">
        <ele>2364.537</ele>
        <time>2015-09-05T11:23:09Z</time>
      </trkpt>
      <trkpt lat="43.17674" lon="-4.81157">
        <ele>2367.423</ele>
        <time>2015-09-05T11:23:34Z</time>
      </trkpt>
      <trkpt lat="43.17668" lon="-4.81165">
        <ele>2368.822</ele>
        <time>2015-09-05T11:23:47Z</time>
      </trkpt>
      <trkpt lat="43.17661" lon="-4.81176">
        <ele>2370.364</ele>
        <time>2015-09-05T11:23:59Z</time>
      </trkpt>
      <trkpt lat="43.17657" lon="-4.81182">
        <ele>2370.31</ele>
        <time>2015-09-05T11:24:08Z</time>
      </trkpt>
      <trkpt lat="43.17648" lon="-4.81196">
        <ele>2373.225</ele>
        <time>2015-09-05T11:24:27Z</time>
      </trkpt>
      <trkpt lat="43.17646" lon="-4.81198">
        <ele>2373.214</ele>
        <time>2015-09-05T11:24:29Z</time>
      </trkpt>
      <trkpt lat="43.17633" lon="-4.81214">
        <ele>2374.14</ele>
        <time>2015-09-05T11:24:49Z</time>
      </trkpt>
      <trkpt lat="43.17622" lon="-4.81224">
        <ele>2377.056</ele>
        <time>2015-09-05T11:25:07Z</time>
      </trkpt>
      <trkpt lat="43.17617" lon="-4.81232">
        <ele>2378.021</ele>
        <time>2015-09-05T11:25:19Z</time>
      </trkpt>
      <trkpt lat="43.17609" lon="-4.81246">
        <ele>2379.992</ele>
        <time>2015-09-05T11:25:36Z</time>
      </trkpt>
      <trkpt lat="43.17605" lon="-4.81252">
        <ele>2380.873</ele>
        <time>2015-09-05T11:25:46Z</time>
      </trkpt>
      <trkpt lat="43.17605" lon="-4.81257">
        <ele>2381.808</ele>
        <time>2015-09-05T11:26:23Z</time>
      </trkpt>
      <trkpt lat="43.17604" lon="-4.8126">
        <ele>2381.35</ele>
        <time>2015-09-05T11:26:37Z</time>
      </trkpt>
      <trkpt lat="43.17597" lon="-4.81275">
        <ele>2381.876</ele>
        <time>2015-09-05T11:26:54Z</time>
      </trkpt>
      <trkpt lat="43.17592" lon="-4.8128">
        <ele>2382.315</ele>
        <time>2015-09-05T11:27:06Z</time>
      </trkpt>
      <trkpt lat="43.17584" lon="-4.81294">
        <ele>2384.241</ele>
        <time>2015-09-05T11:27:22Z</time>
      </trkpt>
      <trkpt lat="43.17571" lon="-4.81302">
        <ele>2387.645</ele>
        <time>2015-09-05T11:27:43Z</time>
      </trkpt>
      <trkpt lat="43.17567" lon="-4.81303">
        <ele>2389.039</ele>
        <time>2015-09-05T11:27:48Z</time>
      </trkpt>
      <trkpt lat="43.17554" lon="-4.813">
        <ele>2392.421</ele>
        <time>2015-09-05T11:28:12Z</time>
      </trkpt>
      <trkpt lat="43.17553" lon="-4.81299">
        <ele>2392.408</ele>
        <time>2015-09-05T11:28:16Z</time>
      </trkpt>
      <trkpt lat="43.1754" lon="-4.81297">
        <ele>2396.273</ele>
        <time>2015-09-05T11:28:40Z</time>
      </trkpt>
      <trkpt lat="43.17539" lon="-4.81291">
        <ele>2396.22</ele>
        <time>2015-09-05T11:28:56Z</time>
      </trkpt>
      <trkpt lat="43.17531" lon="-4.81286">
        <ele>2399.154</ele>
        <time>2015-09-05T11:29:27Z</time>
      </trkpt>
      <trkpt lat="43.17528" lon="-4.81286">
        <ele>2401.015</ele>
        <time>2015-09-05T11:29:39Z</time>
      </trkpt>
      <trkpt lat="43.17519" lon="-4.81285">
        <ele>2406.339</ele>
        <time>2015-09-05T11:30:02Z</time>
      </trkpt>
      <trkpt lat="43.17516" lon="-4.81285">
        <ele>2408.703</ele>
        <time>2015-09-05T11:30:38Z</time>
      </trkpt>
      <trkpt lat="43.17513" lon="-4.81281">
        <ele>2410.223</ele>
        <time>2015-09-05T11:30:49Z</time>
      </trkpt>
      <trkpt lat="43.17498" lon="-4.81277">
        <ele>2414.546</ele>
        <time>2015-09-05T11:31:14Z</time>
      </trkpt>
      <trkpt lat="43.17495" lon="-4.81278">
        <ele>2415.545</ele>
        <time>2015-09-05T11:31:28Z</time>
      </trkpt>
      <trkpt lat="43.1748" lon="-4.81276">
        <ele>2420.311</ele>
        <time>2015-09-05T11:31:55Z</time>
      </trkpt>
      <trkpt lat="43.17476" lon="-4.81278">
        <ele>2422.786</ele>
        <time>2015-09-05T11:32:06Z</time>
      </trkpt>
      <trkpt lat="43.17473" lon="-4.81272">
        <ele>2425.512</ele>
        <time>2015-09-05T11:33:38Z</time>
      </trkpt>
      <trkpt lat="43.17476" lon="-4.81263">
        <ele>2426.521</ele>
        <time>2015-09-05T11:33:51Z</time>
      </trkpt>
      <trkpt lat="43.1748" lon="-4.8126">
        <ele>2427.59</ele>
        <time>2015-09-05T11:38:43Z</time>
      </trkpt>
      <trkpt lat="43.1748" lon="-4.81259">
        <ele>2428.019</ele>
        <time>2015-09-05T11:38:58Z</time>
      </trkpt>
      <trkpt lat="43.17483" lon="-4.81251">
        <ele>2429.478</ele>
        <time>2015-09-05T11:39:24Z</time>
      </trkpt>
      <trkpt lat="43.17492" lon="-4.81233">
        <ele>2432.334</ele>
        <time>2015-09-05T11:39:51Z</time>
      </trkpt>
      <trkpt lat="43.17494" lon="-4.81225">
        <ele>2434.243</ele>
        <time>2015-09-05T11:40:02Z</time>
      </trkpt>
      <trkpt lat="43.17499" lon="-4.81207">
        <ele>2439.059</ele>
        <time>2015-09-05T11:40:29Z</time>
      </trkpt>
      <trkpt lat="43.17501" lon="-4.81201">
        <ele>2440.934</ele>
        <time>2015-09-05T11:40:42Z</time>
      </trkpt>
      <trkpt lat="43.17495" lon="-4.81193">
        <ele>2445.711</ele>
        <time>2015-09-05T11:41:09Z</time>
      </trkpt>
      <trkpt lat="43.17497" lon="-4.81186">
        <ele>2447.721</ele>
        <time>2015-09-05T11:41:21Z</time>
      </trkpt>
      <trkpt lat="43.17499" lon="-4.81178">
        <ele>2450.508</ele>
        <time>2015-09-05T11:41:46Z</time>
      </trkpt>
      <trkpt lat="43.17501" lon="-4.81173">
        <ele>2452.042</ele>
        <time>2015-09-05T11:41:56Z</time>
      </trkpt>
      <trkpt lat="43.17502" lon="-4.81168">
        <ele>2453.928</ele>
        <time>2015-09-05T11:42:18Z</time>
      </trkpt>
      <trkpt lat="43.175" lon="-4.81158">
        <ele>2458.752</ele>
        <time>2015-09-05T11:42:45Z</time>
      </trkpt>
      <trkpt lat="43.17502" lon="-4.81155">
        <ele>2459.763</ele>
        <time>2015-09-05T11:42:57Z</time>
      </trkpt>
      <trkpt lat="43.175" lon="-4.81147">
        <ele>2462.187</ele>
        <time>2015-09-05T11:43:27Z</time>
      </trkpt>
      <trkpt lat="43.175" lon="-4.81143">
        <ele>2463.026</ele>
        <time>2015-09-05T11:43:34Z</time>
      </trkpt>
      <trkpt lat="43.17499" lon="-4.81134">
        <ele>2466.411</ele>
        <time>2015-09-05T11:43:58Z</time>
      </trkpt>
      <trkpt lat="43.17499" lon="-4.81131">
        <ele>2468.308</ele>
        <time>2015-09-05T11:44:10Z</time>
      </trkpt>
      <trkpt lat="43.17498" lon="-4.81126">
        <ele>2471.252</ele>
        <time>2015-09-05T11:44:35Z</time>
      </trkpt>
      <trkpt lat="43.17498" lon="-4.81124">
        <ele>2471.789</ele>
        <time>2015-09-05T11:44:47Z</time>
      </trkpt>
      <trkpt lat="43.17499" lon="-4.81118">
        <ele>2474.683</ele>
        <time>2015-09-05T11:45:13Z</time>
      </trkpt>
      <trkpt lat="43.17501" lon="-4.81112">
        <ele>2477.079</ele>
        <time>2015-09-05T11:45:43Z</time>
      </trkpt>
      <trkpt lat="43.17501" lon="-4.8111">
        <ele>2477.988</ele>
        <time>2015-09-05T11:46:00Z</time>
      </trkpt>
      <trkpt lat="43.17497" lon="-4.81102">
        <ele>2481.804</ele>
        <time>2015-09-05T11:46:26Z</time>
      </trkpt>
      <trkpt lat="43.17497" lon="-4.81101">
        <ele>2483.224</ele>
        <time>2015-09-05T11:46:39Z</time>
      </trkpt>
      <trkpt lat="43.17496" lon="-4.81098">
        <ele>2485.247</ele>
        <time>2015-09-05T11:47:08Z</time>
      </trkpt>
      <trkpt lat="43.17495" lon="-4.81098">
        <ele>2486.186</ele>
        <time>2015-09-05T11:47:23Z</time>
      </trkpt>
      <trkpt lat="43.17494" lon="-4.81097">
        <ele>2486.692</ele>
        <time>2015-09-05T11:48:16Z</time>
      </trkpt>
      <trkpt lat="43.17493" lon="-4.81096">
        <ele>2487.627</ele>
        <time>2015-09-05T11:48:29Z</time>
      </trkpt>
      <trkpt lat="43.17486" lon="-4.81095">
        <ele>2490.483</ele>
        <time>2015-09-05T11:48:59Z</time>
      </trkpt>
      <trkpt lat="43.17482" lon="-4.81095">
        <ele>2493.382</ele>
        <time>2015-09-05T11:49:15Z</time>
      </trkpt>
      <trkpt lat="43.17478" lon="-4.81088">
        <ele>2496.707</ele>
        <time>2015-09-05T11:49:40Z</time>
      </trkpt>
      <trkpt lat="43.17468" lon="-4.81089">
        <ele>2500.508</ele>
        <time>2015-09-05T11:50:07Z</time>
      </trkpt>
      <trkpt lat="43.17466" lon="-4.8109">
        <ele>2502.51</ele>
        <time>2015-09-05T11:50:20Z</time>
      </trkpt>
      <trkpt lat="43.17464" lon="-4.81087">
        <ele>2504.996</ele>
        <time>2015-09-05T11:50:51Z</time>
      </trkpt>
      <trkpt lat="43.17459" lon="-4.81087">
        <ele>2506.825</ele>
        <time>2015-09-05T11:51:02Z</time>
      </trkpt>
      <trkpt lat="43.17459" lon="-4.81082">
        <ele>2508.241</ele>
        <time>2015-09-05T11:51:29Z</time>
      </trkpt>
      <trkpt lat="43.17457" lon="-4.81079">
        <ele>2512.126</ele>
        <time>2015-09-05T11:58:51Z</time>
      </trkpt>
      <trkpt lat="43.17464" lon="-4.81073">
        <ele>2510.623</ele>
        <time>2015-09-05T11:59:24Z</time>
      </trkpt>
      <trkpt lat="43.17466" lon="-4.81068">
        <ele>2512.183</ele>
        <time>2015-09-05T11:59:34Z</time>
      </trkpt>
      <trkpt lat="43.17473" lon="-4.81061">
        <ele>2515.408</ele>
        <time>2015-09-05T12:00:00Z</time>
      </trkpt>
      <trkpt lat="43.1747" lon="-4.81056">
        <ele>2517.812</ele>
        <time>2015-09-05T12:00:29Z</time>
      </trkpt>
      <trkpt lat="43.17467" lon="-4.81052">
        <ele>2521.269</ele>
        <time>2015-09-05T12:00:45Z</time>
      </trkpt>
      <trkpt lat="43.17459" lon="-4.81049">
        <ele>2524.673</ele>
        <time>2015-09-05T12:01:09Z</time>
      </trkpt>
      <trkpt lat="43.17459" lon="-4.81048">
        <ele>2525.524</ele>
        <time>2015-09-05T12:01:26Z</time>
      </trkpt>
      <trkpt lat="43.17454" lon="-4.81047">
        <ele>2529.418</ele>
        <time>2015-09-05T12:02:00Z</time>
      </trkpt>
      <trkpt lat="43.17451" lon="-4.81049">
        <ele>2530.847</ele>
        <time>2015-09-05T12:02:12Z</time>
      </trkpt>
      <trkpt lat="43.17447" lon="-4.81046">
        <ele>2533.721</ele>
        <time>2015-09-05T12:02:38Z</time>
      </trkpt>
      <trkpt lat="43.17444" lon="-4.81045">
        <ele>2535.608</ele>
        <time>2015-09-05T12:02:51Z</time>
      </trkpt>
      <trkpt lat="43.17442" lon="-4.81045">
        <ele>2538.084</ele>
        <time>2015-09-05T12:03:26Z</time>
      </trkpt>
      <trkpt lat="43.17438" lon="-4.8104">
        <ele>2540.92</ele>
        <time>2015-09-05T12:03:53Z</time>
      </trkpt>
      <trkpt lat="43.17437" lon="-4.81037">
        <ele>2542.815</ele>
        <time>2015-09-05T12:04:07Z</time>
      </trkpt>
      <trkpt lat="43.17434" lon="-4.81036">
        <ele>2544.821</ele>
        <time>2015-09-05T12:04:35Z</time>
      </trkpt>
      <trkpt lat="43.17434" lon="-4.81035">
        <ele>2545.23</ele>
        <time>2015-09-05T12:04:51Z</time>
      </trkpt>
      <trkpt lat="43.17429" lon="-4.8103">
        <ele>2548.659</ele>
        <time>2015-09-05T12:05:12Z</time>
      </trkpt>
      <trkpt lat="43.17429" lon="-4.81028">
        <ele>2550.014</ele>
        <time>2015-09-05T12:05:24Z</time>
      </trkpt>
      <trkpt lat="43.17432" lon="-4.8102">
        <ele>2552.956</ele>
        <time>2015-09-05T12:05:50Z</time>
      </trkpt>
      <trkpt lat="43.17434" lon="-4.81013">
        <ele>2553.465</ele>
        <time>2015-09-05T12:06:04Z</time>
      </trkpt>
      <trkpt lat="43.17437" lon="-4.81009">
        <ele>2553.921</ele>
        <time>2015-09-05T12:06:30Z</time>
      </trkpt>
      <trkpt lat="43.17437" lon="-4.81007">
        <ele>2555.316</ele>
        <time>2015-09-05T12:06:45Z</time>
      </trkpt>
      <trkpt lat="43.17434" lon="-4.81003">
        <ele>2559.742</ele>
        <time>2015-09-05T12:07:12Z</time>
      </trkpt>
      <trkpt lat="43.17427" lon="-4.81004">
        <ele>2561.646</ele>
        <time>2015-09-05T12:07:51Z</time>
      </trkpt>
      <trkpt lat="43.17425" lon="-4.81004">
        <ele>2562.588</ele>
        <time>2015-09-05T12:08:09Z</time>
      </trkpt>
      <trkpt lat="43.17418" lon="-4.81012">
        <ele>2564.908</ele>
        <time>2015-09-05T12:08:34Z</time>
      </trkpt>
      <trkpt lat="43.17416" lon="-4.81011">
        <ele>2566.915</ele>
        <time>2015-09-05T12:08:47Z</time>
      </trkpt>
      <trkpt lat="43.17413" lon="-4.81007">
        <ele>2569.321</ele>
        <time>2015-09-05T12:09:06Z</time>
      </trkpt>
      <trkpt lat="43.17413" lon="-4.81005">
        <ele>2570.76</ele>
        <time>2015-09-05T12:09:18Z</time>
      </trkpt>
      <trkpt lat="43.17412" lon="-4.81">
        <ele>2573.646</ele>
        <time>2015-09-05T12:09:50Z</time>
      </trkpt>
      <trkpt lat="43.1741" lon="-4.81001">
        <ele>2574.671</ele>
        <time>2015-09-05T12:10:03Z</time>
      </trkpt>
      <trkpt lat="43.17409" lon="-4.81004">
        <ele>2575.548</ele>
        <time>2015-09-05T12:10:40Z</time>
      </trkpt>
      <trkpt lat="43.17408" lon="-4.81005">
        <ele>2575.517</ele>
        <time>2015-09-05T12:11:14Z</time>
      </trkpt>
      <trkpt lat="43.17407" lon="-4.81006">
        <ele>2575.008</ele>
        <time>2015-09-05T12:11:42Z</time>
      </trkpt>
      <trkpt lat="43.17407" lon="-4.81006">
        <ele>2575.024</ele>
        <time>2015-09-05T12:12:21Z</time>
      </trkpt>
      <trkpt lat="43.17407" lon="-4.81006">
        <ele>2575.571</ele>
        <time>2015-09-05T12:12:42Z</time>
      </trkpt>
      <trkpt lat="43.17406" lon="-4.81008">
        <ele>2574.675</ele>
        <time>2015-09-05T12:13:15Z</time>
      </trkpt>
      <trkpt lat="43.17407" lon="-4.81009">
        <ele>2574.186</ele>
        <time>2015-09-05T12:13:29Z</time>
      </trkpt>
      <trkpt lat="43.17407" lon="-4.8101">
        <ele>2572.11</ele>
        <time>2015-09-05T12:14:04Z</time>
      </trkpt>
      <trkpt lat="43.17407" lon="-4.81011">
        <ele>2614.913</ele>
        <time>2015-09-05T12:14:18Z</time>
      </trkpt>
      <trkpt lat="43.17407" lon="-4.81011">
        <ele>2615.407</ele>
        <time>2015-09-05T12:14:47Z</time>
      </trkpt>
      <trkpt lat="43.17407" lon="-4.81011">
        <ele>2615.408</ele>
        <time>2015-09-05T12:15:08Z</time>
      </trkpt>
      <trkpt lat="43.17408" lon="-4.81011">
        <ele>2615.471</ele>
        <time>2015-09-05T12:16:03Z</time>
      </trkpt>
      <trkpt lat="43.17407" lon="-4.81011">
        <ele>2614.937</ele>
        <time>2015-09-05T12:16:50Z</time>
      </trkpt>
      <trkpt lat="43.17407" lon="-4.8101">
        <ele>2614.432</ele>
        <time>2015-09-05T12:17:24Z</time>
      </trkpt>
      <trkpt lat="43.17407" lon="-4.8101">
        <ele>2614.498</ele>
        <time>2015-09-05T12:18:39Z</time>
      </trkpt>
      <trkpt lat="43.17407" lon="-4.8101">
        <ele>2614.447</ele>
        <time>2015-09-05T12:19:12Z</time>
      </trkpt>
      <trkpt lat="43.17407" lon="-4.81009">
        <ele>2614.465</ele>
        <time>2015-09-05T12:20:23Z</time>
      </trkpt>
      <trkpt lat="43.17407" lon="-4.81009">
        <ele>2614.921</ele>
        <time>2015-09-05T12:20:52Z</time>
      </trkpt>
      <trkpt lat="43.17406" lon="-4.81009">
        <ele>2614.95</ele>
        <time>2015-09-05T12:22:06Z</time>
      </trkpt>
      <trkpt lat="43.17406" lon="-4.81009">
        <ele>2614.989</ele>
        <time>2015-09-05T12:22:45Z</time>
      </trkpt>
      <trkpt lat="43.17406" lon="-4.81009">
        <ele>2614.925</ele>
        <time>2015-09-05T12:23:46Z</time>
      </trkpt>
      <trkpt lat="43.17406" lon="-4.8101">
        <ele>2614.461</ele>
        <time>2015-09-05T12:24:54Z</time>
      </trkpt>
      <trkpt lat="43.17406" lon="-4.8101">
        <ele>2614.966</ele>
        <time>2015-09-05T12:25:29Z</time>
      </trkpt>
      <trkpt lat="43.17407" lon="-4.8101">
        <ele>2614.925</ele>
        <time>2015-09-05T12:26:28Z</time>
      </trkpt>
      <trkpt lat="43.17407" lon="-4.8101">
        <ele>2614.926</ele>
        <time>2015-09-05T12:26:59Z</time>
      </trkpt>
      <trkpt lat="43.17406" lon="-4.8101">
        <ele>2615.408</ele>
        <time>2015-09-05T12:27:46Z</time>
      </trkpt>
      <trkpt lat="43.17406" lon="-4.8101">
        <ele>2615.933</ele>
        <time>2015-09-05T12:28:14Z</time>
      </trkpt>
      <trkpt lat="43.17408" lon="-4.81009">
        <ele>2614.999</ele>
        <time>2015-09-05T12:28:47Z</time>
      </trkpt>
      <trkpt lat="43.17409" lon="-4.81008">
        <ele>2614.058</ele>
        <time>2015-09-05T12:28:52Z</time>
      </trkpt>
      <trkpt lat="43.17411" lon="-4.81002">
        <ele>2615.474</ele>
        <time>2015-09-05T12:29:23Z</time>
      </trkpt>
      <trkpt lat="43.17413" lon="-4.80998">
        <ele>2614.488</ele>
        <time>2015-09-05T12:29:49Z</time>
      </trkpt>
      <trkpt lat="43.17413" lon="-4.80998">
        <ele>2614.435</ele>
        <time>2015-09-05T12:30:08Z</time>
      </trkpt>
      <trkpt lat="43.17413" lon="-4.80998">
        <ele>2613.514</ele>
        <time>2015-09-05T12:30:55Z</time>
      </trkpt>
      <trkpt lat="43.17413" lon="-4.80997">
        <ele>2613.508</ele>
        <time>2015-09-05T12:31:24Z</time>
      </trkpt>
      <trkpt lat="43.17413" lon="-4.80997">
        <ele>2613.553</ele>
        <time>2015-09-05T12:32:14Z</time>
      </trkpt>
      <trkpt lat="43.17413" lon="-4.80997">
        <ele>2613.51</ele>
        <time>2015-09-05T12:32:42Z</time>
      </trkpt>
      <trkpt lat="43.17413" lon="-4.80997">
        <ele>2614.034</ele>
        <time>2015-09-05T12:33:38Z</time>
      </trkpt>
      <trkpt lat="43.17413" lon="-4.80997">
        <ele>2614.025</ele>
        <time>2015-09-05T12:34:11Z</time>
      </trkpt>
      <trkpt lat="43.17413" lon="-4.80997">
        <ele>2614.079</ele>
        <time>2015-09-05T12:35:10Z</time>
      </trkpt>
      <trkpt lat="43.17413" lon="-4.80997">
        <ele>2614.053</ele>
        <time>2015-09-05T12:35:45Z</time>
      </trkpt>
      <trkpt lat="43.17413" lon="-4.80997">
        <ele>2614.414</ele>
        <time>2015-09-05T12:36:29Z</time>
      </trkpt>
      <trkpt lat="43.17413" lon="-4.80997">
        <ele>2614.026</ele>
        <time>2015-09-05T12:37:28Z</time>
      </trkpt>
      <trkpt lat="43.17413" lon="-4.80997">
        <ele>2614.065</ele>
        <time>2015-09-05T12:38:01Z</time>
      </trkpt>
      <trkpt lat="43.17412" lon="-4.80997">
        <ele>2614.021</ele>
        <time>2015-09-05T12:39:04Z</time>
      </trkpt>
      <trkpt lat="43.17412" lon="-4.80997">
        <ele>2614.036</ele>
        <time>2015-09-05T12:39:37Z</time>
      </trkpt>
      <trkpt lat="43.17412" lon="-4.80996">
        <ele>2614.482</ele>
        <time>2015-09-05T12:40:51Z</time>
      </trkpt>
      <trkpt lat="43.17413" lon="-4.80996">
        <ele>2614.471</ele>
        <time>2015-09-05T12:41:27Z</time>
      </trkpt>
      <trkpt lat="43.17413" lon="-4.80996">
        <ele>2615.421</ele>
        <time>2015-09-05T12:42:40Z</time>
      </trkpt>
      <trkpt lat="43.17413" lon="-4.80996">
        <ele>2614.913</ele>
        <time>2015-09-05T12:42:57Z</time>
      </trkpt>
      <trkpt lat="43.1741" lon="-4.81">
        <ele>2616.417</ele>
        <time>2015-09-05T12:43:22Z</time>
      </trkpt>
      <trkpt lat="43.1741" lon="-4.81001">
        <ele>2616.433</ele>
        <time>2015-09-05T12:43:52Z</time>
      </trkpt>
      <trkpt lat="43.1741" lon="-4.81001">
        <ele>2616.462</ele>
        <time>2015-09-05T12:44:05Z</time>
      </trkpt>
      <trkpt lat="43.17409" lon="-4.81002">
        <ele>2615.948</ele>
        <time>2015-09-05T12:44:56Z</time>
      </trkpt>
      <trkpt lat="43.17409" lon="-4.81002">
        <ele>2616.493</ele>
        <time>2015-09-05T12:45:21Z</time>
      </trkpt>
      <trkpt lat="43.17409" lon="-4.81002">
        <ele>2616.969</ele>
        <time>2015-09-05T12:46:18Z</time>
      </trkpt>
      <trkpt lat="43.17409" lon="-4.81001">
        <ele>2615.904</ele>
        <time>2015-09-05T12:46:42Z</time>
      </trkpt>
      <trkpt lat="43.17409" lon="-4.81001">
        <ele>2615.908</ele>
        <time>2015-09-05T12:47:35Z</time>
      </trkpt>
      <trkpt lat="43.17409" lon="-4.81001">
        <ele>2615.997</ele>
        <time>2015-09-05T12:48:04Z</time>
      </trkpt>
      <trkpt lat="43.17409" lon="-4.81002">
        <ele>2615.923</ele>
        <time>2015-09-05T12:48:49Z</time>
      </trkpt>
      <trkpt lat="43.17408" lon="-4.81004">
        <ele>2616.957</ele>
        <time>2015-09-05T12:49:13Z</time>
      </trkpt>
      <trkpt lat="43.17408" lon="-4.81004">
        <ele>2617.348</ele>
        <time>2015-09-05T12:49:14Z</time>
      </trkpt>
      <trkpt lat="43.17406" lon="-4.81007">
        <ele>2616.462</ele>
        <time>2015-09-05T12:49:47Z</time>
      </trkpt>
      <trkpt lat="43.17406" lon="-4.81007">
        <ele>2616.461</ele>
        <time>2015-09-05T12:50:13Z</time>
      </trkpt>
      <trkpt lat="43.17406" lon="-4.81008">
        <ele>2616.413</ele>
        <time>2015-09-05T12:50:56Z</time>
      </trkpt>
      <trkpt lat="43.17406" lon="-4.81008">
        <ele>2616.408</ele>
        <time>2015-09-05T12:51:27Z</time>
      </trkpt>
      <trkpt lat="43.17406" lon="-4.81008">
        <ele>2616.946</ele>
        <time>2015-09-05T12:52:09Z</time>
      </trkpt>
      <trkpt lat="43.17406" lon="-4.81008">
        <ele>2616.963</ele>
        <time>2015-09-05T12:52:36Z</time>
      </trkpt>
      <trkpt lat="43.17405" lon="-4.81008">
        <ele>2616.977</ele>
        <time>2015-09-05T12:53:46Z</time>
      </trkpt>
      <trkpt lat="43.17405" lon="-4.81008">
        <ele>2616.958</ele>
        <time>2015-09-05T12:54:15Z</time>
      </trkpt>
      <trkpt lat="43.17405" lon="-4.81007">
        <ele>2617.342</ele>
        <time>2015-09-05T12:55:16Z</time>
      </trkpt>
      <trkpt lat="43.17406" lon="-4.81008">
        <ele>2616.407</ele>
        <time>2015-09-05T12:55:48Z</time>
      </trkpt>
      <trkpt lat="43.17406" lon="-4.81009">
        <ele>2616.417</ele>
        <time>2015-09-05T12:56:09Z</time>
      </trkpt>
      <trkpt lat="43.17407" lon="-4.8101">
        <ele>2615.936</ele>
        <time>2015-09-05T12:56:48Z</time>
      </trkpt>
      <trkpt lat="43.17407" lon="-4.8101">
        <ele>2615.965</ele>
        <time>2015-09-05T12:57:06Z</time>
      </trkpt>
      <trkpt lat="43.17407" lon="-4.81011">
        <ele>2614.031</ele>
        <time>2015-09-05T12:57:31Z</time>
      </trkpt>
      <trkpt lat="43.17408" lon="-4.81011">
        <ele>2614.426</ele>
        <time>2015-09-05T12:57:50Z</time>
      </trkpt>
      <trkpt lat="43.17408" lon="-4.81011">
        <ele>2614.052</ele>
        <time>2015-09-05T12:58:49Z</time>
      </trkpt>
      <trkpt lat="43.17408" lon="-4.81012">
        <ele>2615.441</ele>
        <time>2015-09-05T12:59:16Z</time>
      </trkpt>
      <trkpt lat="43.17407" lon="-4.81012">
        <ele>2614.444</ele>
        <time>2015-09-05T12:59:43Z</time>
      </trkpt>
      <trkpt lat="43.17411" lon="-4.81009">
        <ele>2610.608</ele>
        <time>2015-09-05T13:00:12Z</time>
      </trkpt>
      <trkpt lat="43.17421" lon="-4.81003">
        <ele>2608.257</ele>
        <time>2015-09-05T13:00:25Z</time>
      </trkpt>
      <trkpt lat="43.17424" lon="-4.81009">
        <ele>2604.453</ele>
        <time>2015-09-05T13:00:50Z</time>
      </trkpt>
      <trkpt lat="43.17426" lon="-4.81009">
        <ele>2602.932</ele>
        <time>2015-09-05T13:01:03Z</time>
      </trkpt>
      <trkpt lat="43.1743" lon="-4.8101">
        <ele>2600.028</ele>
        <time>2015-09-05T13:01:26Z</time>
      </trkpt>
      <trkpt lat="43.1743" lon="-4.81013">
        <ele>2599.593</ele>
        <time>2015-09-05T13:01:39Z</time>
      </trkpt>
      <trkpt lat="43.17432" lon="-4.81014">
        <ele>2597.195</ele>
        <time>2015-09-05T13:02:04Z</time>
      </trkpt>
      <trkpt lat="43.17433" lon="-4.81015">
        <ele>2596.249</ele>
        <time>2015-09-05T13:02:17Z</time>
      </trkpt>
      <trkpt lat="43.17439" lon="-4.81013">
        <ele>2593.808</ele>
        <time>2015-09-05T13:02:41Z</time>
      </trkpt>
      <trkpt lat="43.1744" lon="-4.81016">
        <ele>2592.31</ele>
        <time>2015-09-05T13:02:57Z</time>
      </trkpt>
      <trkpt lat="43.17437" lon="-4.81024">
        <ele>2589.526</ele>
        <time>2015-09-05T13:03:23Z</time>
      </trkpt>
      <trkpt lat="43.17436" lon="-4.8103">
        <ele>2588.09</ele>
        <time>2015-09-05T13:03:47Z</time>
      </trkpt>
      <trkpt lat="43.17439" lon="-4.81029">
        <ele>2586.621</ele>
        <time>2015-09-05T13:04:01Z</time>
      </trkpt>
      <trkpt lat="43.17444" lon="-4.81029">
        <ele>2584.225</ele>
        <time>2015-09-05T13:04:28Z</time>
      </trkpt>
      <trkpt lat="43.1744" lon="-4.81032">
        <ele>2584.681</ele>
        <time>2015-09-05T13:04:42Z</time>
      </trkpt>
      <trkpt lat="43.17438" lon="-4.81039">
        <ele>2582.717</ele>
        <time>2015-09-05T13:05:11Z</time>
      </trkpt>
      <trkpt lat="43.17439" lon="-4.8104">
        <ele>2582.208</ele>
        <time>2015-09-05T13:05:26Z</time>
      </trkpt>
      <trkpt lat="43.1744" lon="-4.81041">
        <ele>2581.318</ele>
        <time>2015-09-05T13:06:02Z</time>
      </trkpt>
      <trkpt lat="43.1744" lon="-4.81043">
        <ele>2579.445</ele>
        <time>2015-09-05T13:06:17Z</time>
      </trkpt>
      <trkpt lat="43.1744" lon="-4.8105">
        <ele>2577.489</ele>
        <time>2015-09-05T13:06:38Z</time>
      </trkpt>
      <trkpt lat="43.1744" lon="-4.81056">
        <ele>2575.595</ele>
        <time>2015-09-05T13:07:08Z</time>
      </trkpt>
      <trkpt lat="43.17441" lon="-4.8106">
        <ele>2573.644</ele>
        <time>2015-09-05T13:07:23Z</time>
      </trkpt>
      <trkpt lat="43.17445" lon="-4.81061">
        <ele>2571.281</ele>
        <time>2015-09-05T13:07:49Z</time>
      </trkpt>
      <trkpt lat="43.17446" lon="-4.8106">
        <ele>2570.709</ele>
        <time>2015-09-05T13:08:05Z</time>
      </trkpt>
      <trkpt lat="43.17457" lon="-4.81053">
        <ele>2567.845</ele>
        <time>2015-09-05T13:08:30Z</time>
      </trkpt>
      <trkpt lat="43.17462" lon="-4.81051">
        <ele>2565.934</ele>
        <time>2015-09-05T13:08:45Z</time>
      </trkpt>
      <trkpt lat="43.17468" lon="-4.81051">
        <ele>2562.11</ele>
        <time>2015-09-05T13:09:12Z</time>
      </trkpt>
      <trkpt lat="43.17469" lon="-4.81051">
        <ele>2561.195</ele>
        <time>2015-09-05T13:09:25Z</time>
      </trkpt>
      <trkpt lat="43.17473" lon="-4.81057">
        <ele>2557.781</ele>
        <time>2015-09-05T13:09:51Z</time>
      </trkpt>
      <trkpt lat="43.17477" lon="-4.81059">
        <ele>2554.857</ele>
        <time>2015-09-05T13:10:16Z</time>
      </trkpt>
      <trkpt lat="43.17479" lon="-4.81059">
        <ele>2554.4</ele>
        <time>2015-09-05T13:10:27Z</time>
      </trkpt>
      <trkpt lat="43.17478" lon="-4.81062">
        <ele>2552.008</ele>
        <time>2015-09-05T13:10:53Z</time>
      </trkpt>
      <trkpt lat="43.17476" lon="-4.81064">
        <ele>2549.656</ele>
        <time>2015-09-05T13:11:07Z</time>
      </trkpt>
      <trkpt lat="43.17474" lon="-4.81071">
        <ele>2549.142</ele>
        <time>2015-09-05T13:11:33Z</time>
      </trkpt>
      <trkpt lat="43.17479" lon="-4.81073">
        <ele>2546.291</ele>
        <time>2015-09-05T13:11:48Z</time>
      </trkpt>
      <trkpt lat="43.17486" lon="-4.81078">
        <ele>2541.457</ele>
        <time>2015-09-05T13:12:11Z</time>
      </trkpt>
      <trkpt lat="43.17487" lon="-4.81081">
        <ele>2539.572</ele>
        <time>2015-09-05T13:12:23Z</time>
      </trkpt>
      <trkpt lat="43.17485" lon="-4.81088">
        <ele>2536.169</ele>
        <time>2015-09-05T13:12:49Z</time>
      </trkpt>
      <trkpt lat="43.17484" lon="-4.81091">
        <ele>2535.104</ele>
        <time>2015-09-05T13:13:05Z</time>
      </trkpt>
      <trkpt lat="43.17489" lon="-4.81093">
        <ele>2532.308</ele>
        <time>2015-09-05T13:13:29Z</time>
      </trkpt>
      <trkpt lat="43.17493" lon="-4.81093">
        <ele>2529.926</ele>
        <time>2015-09-05T13:14:02Z</time>
      </trkpt>
      <trkpt lat="43.17494" lon="-4.81095">
        <ele>2527.973</ele>
        <time>2015-09-05T13:14:14Z</time>
      </trkpt>
      <trkpt lat="43.17497" lon="-4.81099">
        <ele>2525.057</ele>
        <time>2015-09-05T13:14:36Z</time>
      </trkpt>
      <trkpt lat="43.175" lon="-4.811">
        <ele>2524.118</ele>
        <time>2015-09-05T13:14:49Z</time>
      </trkpt>
      <trkpt lat="43.17504" lon="-4.81105">
        <ele>2520.282</ele>
        <time>2015-09-05T13:15:16Z</time>
      </trkpt>
      <trkpt lat="43.17505" lon="-4.8111">
        <ele>2517.831</ele>
        <time>2015-09-05T13:15:30Z</time>
      </trkpt>
      <trkpt lat="43.17505" lon="-4.81116">
        <ele>2515.007</ele>
        <time>2015-09-05T13:15:52Z</time>
      </trkpt>
      <trkpt lat="43.17503" lon="-4.81121">
        <ele>2513.508</ele>
        <time>2015-09-05T13:16:03Z</time>
      </trkpt>
      <trkpt lat="43.17501" lon="-4.81129">
        <ele>2511.123</ele>
        <time>2015-09-05T13:16:26Z</time>
      </trkpt>
      <trkpt lat="43.175" lon="-4.81141">
        <ele>2506.349</ele>
        <time>2015-09-05T13:16:53Z</time>
      </trkpt>
      <trkpt lat="43.175" lon="-4.81144">
        <ele>2504.434</ele>
        <time>2015-09-05T13:17:05Z</time>
      </trkpt>
      <trkpt lat="43.175" lon="-4.81154">
        <ele>2499.65</ele>
        <time>2015-09-05T13:17:24Z</time>
      </trkpt>
      <trkpt lat="43.17503" lon="-4.81162">
        <ele>2496.799</ele>
        <time>2015-09-05T13:17:34Z</time>
      </trkpt>
      <trkpt lat="43.175" lon="-4.81177">
        <ele>2490.947</ele>
        <time>2015-09-05T13:17:54Z</time>
      </trkpt>
      <trkpt lat="43.17495" lon="-4.81189">
        <ele>2487.611</ele>
        <time>2015-09-05T13:18:05Z</time>
      </trkpt>
      <trkpt lat="43.17499" lon="-4.81201">
        <ele>2481.395</ele>
        <time>2015-09-05T13:18:27Z</time>
      </trkpt>
      <trkpt lat="43.17498" lon="-4.81207">
        <ele>2479.934</ele>
        <time>2015-09-05T13:18:33Z</time>
      </trkpt>
      <trkpt lat="43.17495" lon="-4.81215">
        <ele>2477.58</ele>
        <time>2015-09-05T13:18:40Z</time>
      </trkpt>
      <trkpt lat="43.17489" lon="-4.81235">
        <ele>2473.156</ele>
        <time>2015-09-05T13:18:58Z</time>
      </trkpt>
      <trkpt lat="43.1748" lon="-4.81252">
        <ele>2469.821</ele>
        <time>2015-09-05T13:19:12Z</time>
      </trkpt>
      <trkpt lat="43.17475" lon="-4.81266">
        <ele>2467.462</ele>
        <time>2015-09-05T13:19:21Z</time>
      </trkpt>
      <trkpt lat="43.1747" lon="-4.81289">
        <ele>2464.583</ele>
        <time>2015-09-05T13:19:38Z</time>
      </trkpt>
      <trkpt lat="43.1747" lon="-4.81291">
        <ele>2464.008</ele>
        <time>2015-09-05T13:20:11Z</time>
      </trkpt>
      <trkpt lat="43.1747" lon="-4.81291">
        <ele>2463.517</ele>
        <time>2015-09-05T13:20:18Z</time>
      </trkpt>
      <trkpt lat="43.1747" lon="-4.81315">
        <ele>2461.673</ele>
        <time>2015-09-05T13:20:38Z</time>
      </trkpt>
      <trkpt lat="43.1747" lon="-4.81315">
        <ele>2461.192</ele>
        <time>2015-09-05T13:20:40Z</time>
      </trkpt>
      <trkpt lat="43.1747" lon="-4.81326">
        <ele>2460.298</ele>
        <time>2015-09-05T13:20:57Z</time>
      </trkpt>
      <trkpt lat="43.1747" lon="-4.81329">
        <ele>2459.743</ele>
        <time>2015-09-05T13:21:13Z</time>
      </trkpt>
      <trkpt lat="43.17474" lon="-4.81342">
        <ele>2455.842</ele>
        <time>2015-09-05T13:21:33Z</time>
      </trkpt>
      <trkpt lat="43.17477" lon="-4.81357">
        <ele>2454.414</ele>
        <time>2015-09-05T13:21:55Z</time>
      </trkpt>
      <trkpt lat="43.17478" lon="-4.8136">
        <ele>2454.908</ele>
        <time>2015-09-05T13:22:12Z</time>
      </trkpt>
      <trkpt lat="43.17481" lon="-4.81377">
        <ele>2452.574</ele>
        <time>2015-09-05T13:22:38Z</time>
      </trkpt>
      <trkpt lat="43.17482" lon="-4.81382">
        <ele>2452.091</ele>
        <time>2015-09-05T13:22:49Z</time>
      </trkpt>
      <trkpt lat="43.17482" lon="-4.81384">
        <ele>2452.015</ele>
        <time>2015-09-05T13:23:28Z</time>
      </trkpt>
      <trkpt lat="43.17483" lon="-4.81395">
        <ele>2451.086</ele>
        <time>2015-09-05T13:23:40Z</time>
      </trkpt>
      <trkpt lat="43.17485" lon="-4.81401">
        <ele>2449.12</ele>
        <time>2015-09-05T13:24:02Z</time>
      </trkpt>
      <trkpt lat="43.17485" lon="-4.81406">
        <ele>2448.668</ele>
        <time>2015-09-05T13:24:13Z</time>
      </trkpt>
      <trkpt lat="43.1749" lon="-4.81411">
        <ele>2447.226</ele>
        <time>2015-09-05T13:33:01Z</time>
      </trkpt>
      <trkpt lat="43.17501" lon="-4.81425">
        <ele>2444.877</ele>
        <time>2015-09-05T13:33:23Z</time>
      </trkpt>
      <trkpt lat="43.17502" lon="-4.81429">
        <ele>2445.386</ele>
        <time>2015-09-05T13:33:36Z</time>
      </trkpt>
      <trkpt lat="43.17505" lon="-4.81439">
        <ele>2446.292</ele>
        <time>2015-09-05T13:34:03Z</time>
      </trkpt>
      <trkpt lat="43.17507" lon="-4.81442">
        <ele>2446.227</ele>
        <time>2015-09-05T13:34:07Z</time>
      </trkpt>
      <trkpt lat="43.17515" lon="-4.81452">
        <ele>2446.243</ele>
        <time>2015-09-05T13:34:21Z</time>
      </trkpt>
      <trkpt lat="43.17519" lon="-4.81452">
        <ele>2445.342</ele>
        <time>2015-09-05T13:34:25Z</time>
      </trkpt>
      <trkpt lat="43.17533" lon="-4.81463">
        <ele>2443.849</ele>
        <time>2015-09-05T13:34:43Z</time>
      </trkpt>
      <trkpt lat="43.17539" lon="-4.81465">
        <ele>2443.313</ele>
        <time>2015-09-05T13:34:50Z</time>
      </trkpt>
      <trkpt lat="43.17563" lon="-4.81477">
        <ele>2442.414</ele>
        <time>2015-09-05T13:35:16Z</time>
      </trkpt>
      <trkpt lat="43.17581" lon="-4.81478">
        <ele>2440.95</ele>
        <time>2015-09-05T13:35:39Z</time>
      </trkpt>
      <trkpt lat="43.17586" lon="-4.81485">
        <ele>2441.979</ele>
        <time>2015-09-05T13:35:49Z</time>
      </trkpt>
      <trkpt lat="43.17588" lon="-4.81492">
        <ele>2443.885</ele>
        <time>2015-09-05T13:35:56Z</time>
      </trkpt>
      <trkpt lat="43.17588" lon="-4.81494">
        <ele>2444.32</ele>
        <time>2015-09-05T13:35:58Z</time>
      </trkpt>
      <trkpt lat="43.17596" lon="-4.8151">
        <ele>2446.764</ele>
        <time>2015-09-05T13:36:14Z</time>
      </trkpt>
      <trkpt lat="43.17601" lon="-4.81515">
        <ele>2447.706</ele>
        <time>2015-09-05T13:36:20Z</time>
      </trkpt>
      <trkpt lat="43.1761" lon="-4.81528">
        <ele>2450.108</ele>
        <time>2015-09-05T13:36:40Z</time>
      </trkpt>
      <trkpt lat="43.17614" lon="-4.81536">
        <ele>2451.547</ele>
        <time>2015-09-05T13:36:51Z</time>
      </trkpt>
      <trkpt lat="43.17626" lon="-4.81551">
        <ele>2452.043</ele>
        <time>2015-09-05T13:37:10Z</time>
      </trkpt>
      <trkpt lat="43.17627" lon="-4.81558">
        <ele>2453.972</ele>
        <time>2015-09-05T13:37:21Z</time>
      </trkpt>
      <trkpt lat="43.17635" lon="-4.81564">
        <ele>2454.438</ele>
        <time>2015-09-05T13:37:35Z</time>
      </trkpt>
      <trkpt lat="43.17649" lon="-4.81573">
        <ele>2454.442</ele>
        <time>2015-09-05T13:38:00Z</time>
      </trkpt>
      <trkpt lat="43.17658" lon="-4.81576">
        <ele>2452.958</ele>
        <time>2015-09-05T13:38:14Z</time>
      </trkpt>
      <trkpt lat="43.17668" lon="-4.81583">
        <ele>2453.417</ele>
        <time>2015-09-05T13:38:26Z</time>
      </trkpt>
      <trkpt lat="43.17671" lon="-4.81586">
        <ele>2452.908</ele>
        <time>2015-09-05T13:38:30Z</time>
      </trkpt>
      <trkpt lat="43.17677" lon="-4.8159">
        <ele>2453.955</ele>
        <time>2015-09-05T13:38:37Z</time>
      </trkpt>
      <trkpt lat="43.17685" lon="-4.81594">
        <ele>2454.952</ele>
        <time>2015-09-05T13:38:45Z</time>
      </trkpt>
      <trkpt lat="43.17699" lon="-4.81594">
        <ele>2454.996</ele>
        <time>2015-09-05T13:39:03Z</time>
      </trkpt>
      <trkpt lat="43.17699" lon="-4.81594">
        <ele>2455.347</ele>
        <time>2015-09-05T13:39:29Z</time>
      </trkpt>
      <trkpt lat="43.17703" lon="-4.81596">
        <ele>2454.911</ele>
        <time>2015-09-05T13:40:08Z</time>
      </trkpt>
      <trkpt lat="43.17714" lon="-4.81604">
        <ele>2456.321</ele>
        <time>2015-09-05T13:40:31Z</time>
      </trkpt>
      <trkpt lat="43.17718" lon="-4.81605">
        <ele>2456.813</ele>
        <time>2015-09-05T13:40:41Z</time>
      </trkpt>
      <trkpt lat="43.17718" lon="-4.81612">
        <ele>2458.727</ele>
        <time>2015-09-05T13:56:26Z</time>
      </trkpt>
      <trkpt lat="43.1772" lon="-4.81619">
        <ele>2457.866</ele>
        <time>2015-09-05T13:56:39Z</time>
      </trkpt>
      <trkpt lat="43.17726" lon="-4.81629">
        <ele>2453.442</ele>
        <time>2015-09-05T13:57:00Z</time>
      </trkpt>
      <trkpt lat="43.17732" lon="-4.81639">
        <ele>2450.587</ele>
        <time>2015-09-05T13:57:12Z</time>
      </trkpt>
      <trkpt lat="43.17732" lon="-4.81646">
        <ele>2447.743</ele>
        <time>2015-09-05T13:57:30Z</time>
      </trkpt>
      <trkpt lat="43.1773" lon="-4.81647">
        <ele>2444.872</ele>
        <time>2015-09-05T13:57:43Z</time>
      </trkpt>
      <trkpt lat="43.17729" lon="-4.81651">
        <ele>2441.429</ele>
        <time>2015-09-05T13:58:09Z</time>
      </trkpt>
      <trkpt lat="43.17728" lon="-4.8166">
        <ele>2440.421</ele>
        <time>2015-09-05T13:58:23Z</time>
      </trkpt>
      <trkpt lat="43.17727" lon="-4.81662">
        <ele>2437.177</ele>
        <time>2015-09-05T13:58:36Z</time>
      </trkpt>
      <trkpt lat="43.17723" lon="-4.81667">
        <ele>2434.243</ele>
        <time>2015-09-05T13:59:03Z</time>
      </trkpt>
      <trkpt lat="43.17724" lon="-4.81669">
        <ele>2432.862</ele>
        <time>2015-09-05T13:59:14Z</time>
      </trkpt>
      <trkpt lat="43.17721" lon="-4.81671">
        <ele>2428.968</ele>
        <time>2015-09-05T13:59:33Z</time>
      </trkpt>
      <trkpt lat="43.17718" lon="-4.81671">
        <ele>2426.093</ele>
        <time>2015-09-05T13:59:45Z</time>
      </trkpt>
      <trkpt lat="43.17714" lon="-4.81674">
        <ele>2426.082</ele>
        <time>2015-09-05T13:59:59Z</time>
      </trkpt>
      <trkpt lat="43.17713" lon="-4.81674">
        <ele>2425.143</ele>
        <time>2015-09-05T14:00:10Z</time>
      </trkpt>
      <trkpt lat="43.17713" lon="-4.81678">
        <ele>2422.208</ele>
        <time>2015-09-05T14:00:34Z</time>
      </trkpt>
      <trkpt lat="43.17713" lon="-4.81679">
        <ele>2420.379</ele>
        <time>2015-09-05T14:00:47Z</time>
      </trkpt>
      <trkpt lat="43.17713" lon="-4.81684">
        <ele>2416.485</ele>
        <time>2015-09-05T14:01:12Z</time>
      </trkpt>
      <trkpt lat="43.17715" lon="-4.81686">
        <ele>2413.119</ele>
        <time>2015-09-05T14:01:29Z</time>
      </trkpt>
      <trkpt lat="43.17718" lon="-4.81691">
        <ele>2410.23</ele>
        <time>2015-09-05T14:01:42Z</time>
      </trkpt>
      <trkpt lat="43.17717" lon="-4.81697">
        <ele>2406.354</ele>
        <time>2015-09-05T14:02:12Z</time>
      </trkpt>
      <trkpt lat="43.17718" lon="-4.81704">
        <ele>2403.446</ele>
        <time>2015-09-05T14:02:25Z</time>
      </trkpt>
      <trkpt lat="43.17722" lon="-4.81727">
        <ele>2397.216</ele>
        <time>2015-09-05T14:02:51Z</time>
      </trkpt>
      <trkpt lat="43.17724" lon="-4.81733">
        <ele>2395.708</ele>
        <time>2015-09-05T14:03:05Z</time>
      </trkpt>
      <trkpt lat="43.17722" lon="-4.81746">
        <ele>2391.974</ele>
        <time>2015-09-05T14:03:31Z</time>
      </trkpt>
      <trkpt lat="43.17719" lon="-4.8175">
        <ele>2390.031</ele>
        <time>2015-09-05T14:03:41Z</time>
      </trkpt>
      <trkpt lat="43.17718" lon="-4.81777">
        <ele>2384.265</ele>
        <time>2015-09-05T14:04:07Z</time>
      </trkpt>
      <trkpt lat="43.17717" lon="-4.81794">
        <ele>2377.531</ele>
        <time>2015-09-05T14:04:33Z</time>
      </trkpt>
      <trkpt lat="43.17718" lon="-4.81804">
        <ele>2374.61</ele>
        <time>2015-09-05T14:04:45Z</time>
      </trkpt>
      <trkpt lat="43.17722" lon="-4.81819">
        <ele>2370.883</ele>
        <time>2015-09-05T14:05:03Z</time>
      </trkpt>
      <trkpt lat="43.17722" lon="-4.81827">
        <ele>2369.811</ele>
        <time>2015-09-05T14:05:09Z</time>
      </trkpt>
      <trkpt lat="43.1772" lon="-4.81843">
        <ele>2340.68</ele>
        <time>2015-09-05T14:05:30Z</time>
      </trkpt>
      <trkpt lat="43.1772" lon="-4.81846">
        <ele>2340.68</ele>
        <time>2015-09-05T14:05:32Z</time>
      </trkpt>
      <trkpt lat="43.17719" lon="-4.81861">
        <ele>2340.24</ele>
        <time>2015-09-05T14:05:47Z</time>
      </trkpt>
      <trkpt lat="43.1772" lon="-4.8187">
        <ele>2340.68</ele>
        <time>2015-09-05T14:05:53Z</time>
      </trkpt>
      <trkpt lat="43.17721" lon="-4.81877">
        <ele>2341.12</ele>
        <time>2015-09-05T14:06:00Z</time>
      </trkpt>
      <trkpt lat="43.1772" lon="-4.81884">
        <ele>2340.68</ele>
        <time>2015-09-05T14:06:06Z</time>
      </trkpt>
      <trkpt lat="43.17719" lon="-4.81891">
        <ele>2340.24</ele>
        <time>2015-09-05T14:06:13Z</time>
      </trkpt>
      <trkpt lat="43.17719" lon="-4.81908">
        <ele>2340.24</ele>
        <time>2015-09-05T14:06:29Z</time>
      </trkpt>
      <trkpt lat="43.17715" lon="-4.81921">
        <ele>2337.4</ele>
        <time>2015-09-05T14:06:42Z</time>
      </trkpt>
      <trkpt lat="43.17711" lon="-4.81929">
        <ele>2333.8</ele>
        <time>2015-09-05T14:06:48Z</time>
      </trkpt>
      <trkpt lat="43.17705" lon="-4.81937">
        <ele>2329.1</ele>
        <time>2015-09-05T14:07:01Z</time>
      </trkpt>
      <trkpt lat="43.17703" lon="-4.81942">
        <ele>2326.9</ele>
        <time>2015-09-05T14:07:07Z</time>
      </trkpt>
      <trkpt lat="43.17702" lon="-4.81949">
        <ele>2324.8</ele>
        <time>2015-09-05T14:07:13Z</time>
      </trkpt>
      <trkpt lat="43.17703" lon="-4.81971">
        <ele>2319.8</ele>
        <time>2015-09-05T14:07:40Z</time>
      </trkpt>
      <trkpt lat="43.17703" lon="-4.81974">
        <ele>2319.1</ele>
        <time>2015-09-05T14:07:43Z</time>
      </trkpt>
      <trkpt lat="43.17707" lon="-4.8199">
        <ele>2317.2</ele>
        <time>2015-09-05T14:08:11Z</time>
      </trkpt>
      <trkpt lat="43.177" lon="-4.81997">
        <ele>2311.9</ele>
        <time>2015-09-05T14:08:34Z</time>
      </trkpt>
      <trkpt lat="43.17696" lon="-4.82002">
        <ele>2308.3</ele>
        <time>2015-09-05T14:08:46Z</time>
      </trkpt>
      <trkpt lat="43.17693" lon="-4.82018">
        <ele>2300.1</ele>
        <time>2015-09-05T14:09:09Z</time>
      </trkpt>
      <trkpt lat="43.1769" lon="-4.82025">
        <ele>2296.1</ele>
        <time>2015-09-05T14:09:21Z</time>
      </trkpt>
      <trkpt lat="43.17684" lon="-4.82032">
        <ele>2291.4</ele>
        <time>2015-09-05T14:09:45Z</time>
      </trkpt>
      <trkpt lat="43.17677" lon="-4.82032">
        <ele>2289.2</ele>
        <time>2015-09-05T14:09:58Z</time>
      </trkpt>
      <trkpt lat="43.17672" lon="-4.82047">
        <ele>2283.4</ele>
        <time>2015-09-05T14:10:25Z</time>
      </trkpt>
      <trkpt lat="43.17669" lon="-4.82047">
        <ele>2282.7</ele>
        <time>2015-09-05T14:10:41Z</time>
      </trkpt>
      <trkpt lat="43.17662" lon="-4.82057">
        <ele>2277.8</ele>
        <time>2015-09-05T14:11:06Z</time>
      </trkpt>
      <trkpt lat="43.17658" lon="-4.8206">
        <ele>2275.4</ele>
        <time>2015-09-05T14:11:40Z</time>
      </trkpt>
      <trkpt lat="43.17658" lon="-4.82059">
        <ele>2275.7</ele>
        <time>2015-09-05T14:12:04Z</time>
      </trkpt>
      <trkpt lat="43.17654" lon="-4.8206">
        <ele>2273.9</ele>
        <time>2015-09-05T14:12:34Z</time>
      </trkpt>
      <trkpt lat="43.17649" lon="-4.82063">
        <ele>2271.1</ele>
        <time>2015-09-05T14:12:46Z</time>
      </trkpt>
      <trkpt lat="43.17652" lon="-4.82072">
        <ele>2269.9</ele>
        <time>2015-09-05T14:13:16Z</time>
      </trkpt>
      <trkpt lat="43.17657" lon="-4.82075">
        <ele>2271.1</ele>
        <time>2015-09-05T14:13:29Z</time>
      </trkpt>
      <trkpt lat="43.17665" lon="-4.82082">
        <ele>2272.6</ele>
        <time>2015-09-05T14:13:40Z</time>
      </trkpt>
      <trkpt lat="43.17668" lon="-4.82098">
        <ele>2270.5</ele>
        <time>2015-09-05T14:13:55Z</time>
      </trkpt>
      <trkpt lat="43.17667" lon="-4.82112">
        <ele>2268.2</ele>
        <time>2015-09-05T14:14:14Z</time>
      </trkpt>
      <trkpt lat="43.17661" lon="-4.82112">
        <ele>2265.5</ele>
        <time>2015-09-05T14:14:28Z</time>
      </trkpt>
      <trkpt lat="43.17649" lon="-4.82106">
        <ele>2261.1</ele>
        <time>2015-09-05T14:14:54Z</time>
      </trkpt>
      <trkpt lat="43.17648" lon="-4.82123">
        <ele>2257.3</ele>
        <time>2015-09-05T14:15:18Z</time>
      </trkpt>
      <trkpt lat="43.17647" lon="-4.82128">
        <ele>2255.8</ele>
        <time>2015-09-05T14:15:22Z</time>
      </trkpt>
      <trkpt lat="43.17637" lon="-4.82157">
        <ele>2244.7</ele>
        <time>2015-09-05T14:15:51Z</time>
      </trkpt>
      <trkpt lat="43.17635" lon="-4.82161">
        <ele>2242.8</ele>
        <time>2015-09-05T14:16:04Z</time>
      </trkpt>
      <trkpt lat="43.17636" lon="-4.82167">
        <ele>2242</ele>
        <time>2015-09-05T14:16:32Z</time>
      </trkpt>
      <trkpt lat="43.17637" lon="-4.82178">
        <ele>2239.5</ele>
        <time>2015-09-05T14:16:45Z</time>
      </trkpt>
      <trkpt lat="43.17637" lon="-4.82183">
        <ele>2238.1</ele>
        <time>2015-09-05T14:17:20Z</time>
      </trkpt>
      <trkpt lat="43.17638" lon="-4.82191">
        <ele>2236.5</ele>
        <time>2015-09-05T14:17:27Z</time>
      </trkpt>
      <trkpt lat="43.17641" lon="-4.82208">
        <ele>2233.3</ele>
        <time>2015-09-05T14:17:55Z</time>
      </trkpt>
      <trkpt lat="43.17642" lon="-4.82212">
        <ele>2232.8</ele>
        <time>2015-09-05T14:18:27Z</time>
      </trkpt>
      <trkpt lat="43.17645" lon="-4.82217">
        <ele>2232.9</ele>
        <time>2015-09-05T14:18:41Z</time>
      </trkpt>
      <trkpt lat="43.17649" lon="-4.82237">
        <ele>2229.2</ele>
        <time>2015-09-05T14:19:09Z</time>
      </trkpt>
      <trkpt lat="43.17648" lon="-4.82239">
        <ele>2228.2</ele>
        <time>2015-09-05T14:19:11Z</time>
      </trkpt>
      <trkpt lat="43.17648" lon="-4.82254">
        <ele>2223.9</ele>
        <time>2015-09-05T14:19:38Z</time>
      </trkpt>
      <trkpt lat="43.17648" lon="-4.8226">
        <ele>2222.1</ele>
        <time>2015-09-05T14:19:51Z</time>
      </trkpt>
      <trkpt lat="43.1766" lon="-4.82283">
        <ele>2219.9</ele>
        <time>2015-09-05T14:20:16Z</time>
      </trkpt>
      <trkpt lat="43.1766" lon="-4.82284">
        <ele>2219.6</ele>
        <time>2015-09-05T14:20:18Z</time>
      </trkpt>
      <trkpt lat="43.17666" lon="-4.82294">
        <ele>2218.4</ele>
        <time>2015-09-05T14:20:42Z</time>
      </trkpt>
      <trkpt lat="43.17675" lon="-4.82319">
        <ele>2210</ele>
        <time>2015-09-05T14:21:09Z</time>
      </trkpt>
      <trkpt lat="43.17677" lon="-4.82328">
        <ele>2206.9</ele>
        <time>2015-09-05T14:21:19Z</time>
      </trkpt>
      <trkpt lat="43.17676" lon="-4.82343">
        <ele>2205</ele>
        <time>2015-09-05T14:21:37Z</time>
      </trkpt>
      <trkpt lat="43.17675" lon="-4.82343">
        <ele>2205</ele>
        <time>2015-09-05T14:21:58Z</time>
      </trkpt>
      <trkpt lat="43.17673" lon="-4.82353">
        <ele>2205</ele>
        <time>2015-09-05T14:22:18Z</time>
      </trkpt>
      <trkpt lat="43.17672" lon="-4.82368">
        <ele>2205</ele>
        <time>2015-09-05T14:22:32Z</time>
      </trkpt>
      <trkpt lat="43.17664" lon="-4.8239">
        <ele>2202.1</ele>
        <time>2015-09-05T14:23:10Z</time>
      </trkpt>
      <trkpt lat="43.17663" lon="-4.82391">
        <ele>2201.9</ele>
        <time>2015-09-05T14:23:26Z</time>
      </trkpt>
      <trkpt lat="43.17662" lon="-4.8239">
        <ele>2201.9</ele>
        <time>2015-09-05T14:24:12Z</time>
      </trkpt>
      <trkpt lat="43.17662" lon="-4.8239">
        <ele>2201.9</ele>
        <time>2015-09-05T14:24:31Z</time>
      </trkpt>
      <trkpt lat="43.17661" lon="-4.82386">
        <ele>2201.9</ele>
        <time>2015-09-05T14:27:16Z</time>
      </trkpt>
      <trkpt lat="43.17716" lon="-4.8257">
        <ele>2233</ele>
      </trkpt>
      <trkpt lat="43.17714" lon="-4.82652">
        <ele>2233</ele>
      </trkpt>
      <trkpt lat="43.17811" lon="-4.82803">
        <ele>2216.6</ele>
      </trkpt>
      <trkpt lat="43.17824" lon="-4.82859">
        <ele>2213.9</ele>
      </trkpt>
      <trkpt lat="43.17799" lon="-4.83115">
        <ele>2242.5</ele>
      </trkpt>
    </trkseg>
  </trk>
</gpx>